<?xml version="1.0" encoding="UTF-8" standalone="no" ?>
<gpx xmlns="http://www.topografix.com/GPX/1/1" xmlns:xsi="http://www.w3.org/2001/XMLSchema-instance" xsi:schemaLocation="http://www.topografix.com/GPX/1/1 http://www.topografix.com/GPX/1/1/gpx.xsd" version="1.1" creator="VisuGPX - https://www.visugpx.com">
  <metadata>
    <name>val louron</name>
    <desc><![CDATA[grp_trc:[visibles]]]></desc>
  </metadata>
  <trk>
    <name><![CDATA[16 janv. 2021]]></name>
    <cmt><![CDATA[10:37:36]]></cmt>
    <desc><![CDATA[comment ...]]></desc>
    <trkseg>
      <trkpt lat="42.79033" lon="0.38989">
        <ele>1464</ele>
        <time>2021-01-16T09:37:33Z</time>
      </trkpt>
      <trkpt lat="42.79033" lon="0.38989">
        <ele>1464</ele>
        <time>2021-01-16T09:37:34Z</time>
      </trkpt>
      <trkpt lat="42.79037" lon="0.38997">
        <ele>1462</ele>
        <time>2021-01-16T09:38:16Z</time>
      </trkpt>
      <trkpt lat="42.7903" lon="0.38984">
        <ele>1459</ele>
        <time>2021-01-16T09:39:09Z</time>
      </trkpt>
      <trkpt lat="42.79024" lon="0.39">
        <ele>1459</ele>
        <time>2021-01-16T09:40:01Z</time>
      </trkpt>
      <trkpt lat="42.79018" lon="0.39015">
        <ele>1468</ele>
        <time>2021-01-16T09:40:40Z</time>
      </trkpt>
      <trkpt lat="42.79019" lon="0.39022">
        <ele>1468</ele>
        <time>2021-01-16T09:40:45Z</time>
      </trkpt>
      <trkpt lat="42.79015" lon="0.39029">
        <ele>1463</ele>
        <time>2021-01-16T09:41:52Z</time>
      </trkpt>
      <trkpt lat="42.79011" lon="0.39035">
        <ele>1463</ele>
        <time>2021-01-16T09:41:59Z</time>
      </trkpt>
      <trkpt lat="42.79006" lon="0.3905">
        <ele>1459</ele>
        <time>2021-01-16T09:42:12Z</time>
      </trkpt>
      <trkpt lat="42.79004" lon="0.39058">
        <ele>1458</ele>
        <time>2021-01-16T09:42:20Z</time>
      </trkpt>
      <trkpt lat="42.78999" lon="0.39072">
        <ele>1458</ele>
        <time>2021-01-16T09:42:30Z</time>
      </trkpt>
      <trkpt lat="42.78997" lon="0.39095">
        <ele>1460</ele>
        <time>2021-01-16T09:43:00Z</time>
      </trkpt>
      <trkpt lat="42.78995" lon="0.39101">
        <ele>1461</ele>
        <time>2021-01-16T09:43:06Z</time>
      </trkpt>
      <trkpt lat="42.78983" lon="0.39139">
        <ele>1462</ele>
        <time>2021-01-16T09:43:38Z</time>
      </trkpt>
      <trkpt lat="42.78976" lon="0.39148">
        <ele>1462</ele>
        <time>2021-01-16T09:44:08Z</time>
      </trkpt>
      <trkpt lat="42.78967" lon="0.39156">
        <ele>1462</ele>
        <time>2021-01-16T09:44:21Z</time>
      </trkpt>
      <trkpt lat="42.78962" lon="0.3916">
        <ele>1462</ele>
        <time>2021-01-16T09:44:28Z</time>
      </trkpt>
      <trkpt lat="42.78957" lon="0.39164">
        <ele>1462</ele>
        <time>2021-01-16T09:44:35Z</time>
      </trkpt>
      <trkpt lat="42.78951" lon="0.39168">
        <ele>1462</ele>
        <time>2021-01-16T09:44:40Z</time>
      </trkpt>
      <trkpt lat="42.78946" lon="0.39172">
        <ele>1462</ele>
        <time>2021-01-16T09:44:46Z</time>
      </trkpt>
      <trkpt lat="42.78942" lon="0.39179">
        <ele>1462</ele>
        <time>2021-01-16T09:44:51Z</time>
      </trkpt>
      <trkpt lat="42.78928" lon="0.39191">
        <ele>1461</ele>
        <time>2021-01-16T09:45:08Z</time>
      </trkpt>
      <trkpt lat="42.78908" lon="0.39205">
        <ele>1460</ele>
        <time>2021-01-16T09:45:32Z</time>
      </trkpt>
      <trkpt lat="42.78896" lon="0.39197">
        <ele>1457</ele>
        <time>2021-01-16T09:46:01Z</time>
      </trkpt>
      <trkpt lat="42.78881" lon="0.39196">
        <ele>1456</ele>
        <time>2021-01-16T09:46:16Z</time>
      </trkpt>
      <trkpt lat="42.78874" lon="0.39197">
        <ele>1455</ele>
        <time>2021-01-16T09:46:23Z</time>
      </trkpt>
      <trkpt lat="42.78848" lon="0.39211">
        <ele>1453</ele>
        <time>2021-01-16T09:46:44Z</time>
      </trkpt>
      <trkpt lat="42.78836" lon="0.39225">
        <ele>1451</ele>
        <time>2021-01-16T09:46:57Z</time>
      </trkpt>
      <trkpt lat="42.78829" lon="0.39229">
        <ele>1450</ele>
        <time>2021-01-16T09:47:02Z</time>
      </trkpt>
      <trkpt lat="42.78815" lon="0.39252">
        <ele>1448</ele>
        <time>2021-01-16T09:47:21Z</time>
      </trkpt>
      <trkpt lat="42.78809" lon="0.39255">
        <ele>1447</ele>
        <time>2021-01-16T09:47:29Z</time>
      </trkpt>
      <trkpt lat="42.78803" lon="0.39259">
        <ele>1447</ele>
        <time>2021-01-16T09:47:36Z</time>
      </trkpt>
      <trkpt lat="42.78798" lon="0.39263">
        <ele>1447</ele>
        <time>2021-01-16T09:47:42Z</time>
      </trkpt>
      <trkpt lat="42.78794" lon="0.3928">
        <ele>1447</ele>
        <time>2021-01-16T09:47:51Z</time>
      </trkpt>
      <trkpt lat="42.78792" lon="0.39286">
        <ele>1447</ele>
        <time>2021-01-16T09:47:56Z</time>
      </trkpt>
      <trkpt lat="42.78792" lon="0.39295">
        <ele>1448</ele>
        <time>2021-01-16T09:48:03Z</time>
      </trkpt>
      <trkpt lat="42.78804" lon="0.39292">
        <ele>1446</ele>
        <time>2021-01-16T09:48:26Z</time>
      </trkpt>
      <trkpt lat="42.78814" lon="0.39291">
        <ele>1444</ele>
        <time>2021-01-16T09:48:46Z</time>
      </trkpt>
      <trkpt lat="42.78821" lon="0.39296">
        <ele>1443</ele>
        <time>2021-01-16T09:48:50Z</time>
      </trkpt>
      <trkpt lat="42.78826" lon="0.39298">
        <ele>1443</ele>
        <time>2021-01-16T09:48:58Z</time>
      </trkpt>
      <trkpt lat="42.78832" lon="0.3929">
        <ele>1443</ele>
        <time>2021-01-16T09:49:05Z</time>
      </trkpt>
      <trkpt lat="42.78838" lon="0.3929">
        <ele>1442</ele>
        <time>2021-01-16T09:49:12Z</time>
      </trkpt>
      <trkpt lat="42.78844" lon="0.39296">
        <ele>1442</ele>
        <time>2021-01-16T09:49:22Z</time>
      </trkpt>
      <trkpt lat="42.78849" lon="0.39302">
        <ele>1442</ele>
        <time>2021-01-16T09:49:38Z</time>
      </trkpt>
      <trkpt lat="42.78846" lon="0.3931">
        <ele>1443</ele>
        <time>2021-01-16T09:50:00Z</time>
      </trkpt>
      <trkpt lat="42.78849" lon="0.39316">
        <ele>1444</ele>
        <time>2021-01-16T09:50:12Z</time>
      </trkpt>
      <trkpt lat="42.78851" lon="0.39324">
        <ele>1443</ele>
        <time>2021-01-16T09:50:21Z</time>
      </trkpt>
      <trkpt lat="42.78854" lon="0.39331">
        <ele>1447</ele>
        <time>2021-01-16T09:50:32Z</time>
      </trkpt>
      <trkpt lat="42.78854" lon="0.39342">
        <ele>1449</ele>
        <time>2021-01-16T09:50:39Z</time>
      </trkpt>
      <trkpt lat="42.78849" lon="0.39346">
        <ele>1450</ele>
        <time>2021-01-16T09:50:44Z</time>
      </trkpt>
      <trkpt lat="42.78847" lon="0.3935">
        <ele>1453</ele>
        <time>2021-01-16T09:50:59Z</time>
      </trkpt>
      <trkpt lat="42.78843" lon="0.39363">
        <ele>1454</ele>
        <time>2021-01-16T09:51:20Z</time>
      </trkpt>
      <trkpt lat="42.78839" lon="0.3937">
        <ele>1454</ele>
        <time>2021-01-16T09:51:27Z</time>
      </trkpt>
      <trkpt lat="42.78838" lon="0.3938">
        <ele>1454</ele>
        <time>2021-01-16T09:51:36Z</time>
      </trkpt>
      <trkpt lat="42.7883" lon="0.39411">
        <ele>1457</ele>
        <time>2021-01-16T09:52:00Z</time>
      </trkpt>
      <trkpt lat="42.78833" lon="0.39443">
        <ele>1458</ele>
        <time>2021-01-16T09:52:19Z</time>
      </trkpt>
      <trkpt lat="42.78835" lon="0.39454">
        <ele>1458</ele>
        <time>2021-01-16T09:52:26Z</time>
      </trkpt>
      <trkpt lat="42.78838" lon="0.39463">
        <ele>1459</ele>
        <time>2021-01-16T09:52:36Z</time>
      </trkpt>
      <trkpt lat="42.78834" lon="0.39464">
        <ele>1460</ele>
        <time>2021-01-16T09:53:01Z</time>
      </trkpt>
      <trkpt lat="42.78827" lon="0.39445">
        <ele>1463</ele>
        <time>2021-01-16T09:53:26Z</time>
      </trkpt>
      <trkpt lat="42.78822" lon="0.39438">
        <ele>1464</ele>
        <time>2021-01-16T09:53:37Z</time>
      </trkpt>
      <trkpt lat="42.78819" lon="0.39445">
        <ele>1464</ele>
        <time>2021-01-16T09:53:46Z</time>
      </trkpt>
      <trkpt lat="42.7881" lon="0.39465">
        <ele>1468</ele>
        <time>2021-01-16T09:54:23Z</time>
      </trkpt>
      <trkpt lat="42.78806" lon="0.39473">
        <ele>1470</ele>
        <time>2021-01-16T09:54:38Z</time>
      </trkpt>
      <trkpt lat="42.78788" lon="0.39481">
        <ele>1474</ele>
        <time>2021-01-16T09:55:20Z</time>
      </trkpt>
      <trkpt lat="42.78771" lon="0.39491">
        <ele>1474</ele>
        <time>2021-01-16T09:55:52Z</time>
      </trkpt>
      <trkpt lat="42.78769" lon="0.39498">
        <ele>1476</ele>
        <time>2021-01-16T09:56:28Z</time>
      </trkpt>
      <trkpt lat="42.78767" lon="0.39505">
        <ele>1477</ele>
        <time>2021-01-16T09:56:38Z</time>
      </trkpt>
      <trkpt lat="42.78762" lon="0.39513">
        <ele>1481</ele>
        <time>2021-01-16T09:56:50Z</time>
      </trkpt>
      <trkpt lat="42.78753" lon="0.39525">
        <ele>1482</ele>
        <time>2021-01-16T09:56:59Z</time>
      </trkpt>
      <trkpt lat="42.78746" lon="0.39528">
        <ele>1483</ele>
        <time>2021-01-16T09:57:22Z</time>
      </trkpt>
      <trkpt lat="42.78738" lon="0.39532">
        <ele>1482</ele>
        <time>2021-01-16T09:57:28Z</time>
      </trkpt>
      <trkpt lat="42.78731" lon="0.39535">
        <ele>1482</ele>
        <time>2021-01-16T09:57:33Z</time>
      </trkpt>
      <trkpt lat="42.78725" lon="0.3954">
        <ele>1481</ele>
        <time>2021-01-16T09:57:45Z</time>
      </trkpt>
      <trkpt lat="42.78726" lon="0.39545">
        <ele>1481</ele>
        <time>2021-01-16T09:57:53Z</time>
      </trkpt>
      <trkpt lat="42.7873" lon="0.39552">
        <ele>1480</ele>
        <time>2021-01-16T09:59:32Z</time>
      </trkpt>
      <trkpt lat="42.78732" lon="0.39559">
        <ele>1478</ele>
        <time>2021-01-16T09:59:38Z</time>
      </trkpt>
      <trkpt lat="42.78736" lon="0.39565">
        <ele>1477</ele>
        <time>2021-01-16T09:59:46Z</time>
      </trkpt>
      <trkpt lat="42.78738" lon="0.39573">
        <ele>1477</ele>
        <time>2021-01-16T09:59:55Z</time>
      </trkpt>
      <trkpt lat="42.78736" lon="0.39583">
        <ele>1477</ele>
        <time>2021-01-16T10:00:14Z</time>
      </trkpt>
      <trkpt lat="42.78731" lon="0.39591">
        <ele>1477</ele>
        <time>2021-01-16T10:00:24Z</time>
      </trkpt>
      <trkpt lat="42.78716" lon="0.39618">
        <ele>1481</ele>
        <time>2021-01-16T10:00:59Z</time>
      </trkpt>
      <trkpt lat="42.7871" lon="0.3962">
        <ele>1482</ele>
        <time>2021-01-16T10:01:15Z</time>
      </trkpt>
      <trkpt lat="42.78699" lon="0.39628">
        <ele>1485</ele>
        <time>2021-01-16T10:01:41Z</time>
      </trkpt>
      <trkpt lat="42.78691" lon="0.39628">
        <ele>1486</ele>
        <time>2021-01-16T10:01:47Z</time>
      </trkpt>
      <trkpt lat="42.78685" lon="0.39628">
        <ele>1486</ele>
        <time>2021-01-16T10:01:56Z</time>
      </trkpt>
      <trkpt lat="42.7867" lon="0.39627">
        <ele>1490</ele>
        <time>2021-01-16T10:02:25Z</time>
      </trkpt>
      <trkpt lat="42.78663" lon="0.39623">
        <ele>1490</ele>
        <time>2021-01-16T10:03:34Z</time>
      </trkpt>
      <trkpt lat="42.78656" lon="0.39626">
        <ele>1489</ele>
        <time>2021-01-16T10:03:41Z</time>
      </trkpt>
      <trkpt lat="42.78648" lon="0.39622">
        <ele>1489</ele>
        <time>2021-01-16T10:03:51Z</time>
      </trkpt>
      <trkpt lat="42.78642" lon="0.39615">
        <ele>1490</ele>
        <time>2021-01-16T10:04:01Z</time>
      </trkpt>
      <trkpt lat="42.78635" lon="0.39614">
        <ele>1490</ele>
        <time>2021-01-16T10:04:08Z</time>
      </trkpt>
      <trkpt lat="42.78632" lon="0.39605">
        <ele>1492</ele>
        <time>2021-01-16T10:04:18Z</time>
      </trkpt>
      <trkpt lat="42.78624" lon="0.39604">
        <ele>1493</ele>
        <time>2021-01-16T10:04:27Z</time>
      </trkpt>
      <trkpt lat="42.7862" lon="0.3961">
        <ele>1495</ele>
        <time>2021-01-16T10:04:34Z</time>
      </trkpt>
      <trkpt lat="42.78613" lon="0.39612">
        <ele>1498</ele>
        <time>2021-01-16T10:05:13Z</time>
      </trkpt>
      <trkpt lat="42.78608" lon="0.39614">
        <ele>1501</ele>
        <time>2021-01-16T10:05:17Z</time>
      </trkpt>
      <trkpt lat="42.786" lon="0.3961">
        <ele>1502</ele>
        <time>2021-01-16T10:05:37Z</time>
      </trkpt>
      <trkpt lat="42.78585" lon="0.39604">
        <ele>1506</ele>
        <time>2021-01-16T10:06:07Z</time>
      </trkpt>
      <trkpt lat="42.78578" lon="0.39603">
        <ele>1509</ele>
        <time>2021-01-16T10:06:14Z</time>
      </trkpt>
      <trkpt lat="42.78564" lon="0.39596">
        <ele>1511</ele>
        <time>2021-01-16T10:06:35Z</time>
      </trkpt>
      <trkpt lat="42.78555" lon="0.39597">
        <ele>1514</ele>
        <time>2021-01-16T10:06:56Z</time>
      </trkpt>
      <trkpt lat="42.78541" lon="0.396">
        <ele>1516</ele>
        <time>2021-01-16T10:07:10Z</time>
      </trkpt>
      <trkpt lat="42.78536" lon="0.39601">
        <ele>1517</ele>
        <time>2021-01-16T10:07:21Z</time>
      </trkpt>
      <trkpt lat="42.78529" lon="0.39602">
        <ele>1519</ele>
        <time>2021-01-16T10:07:31Z</time>
      </trkpt>
      <trkpt lat="42.78523" lon="0.39602">
        <ele>1520</ele>
        <time>2021-01-16T10:07:50Z</time>
      </trkpt>
      <trkpt lat="42.78507" lon="0.39605">
        <ele>1521</ele>
        <time>2021-01-16T10:08:20Z</time>
      </trkpt>
      <trkpt lat="42.78499" lon="0.39606">
        <ele>1521</ele>
        <time>2021-01-16T10:08:29Z</time>
      </trkpt>
      <trkpt lat="42.78488" lon="0.39611">
        <ele>1523</ele>
        <time>2021-01-16T10:08:45Z</time>
      </trkpt>
      <trkpt lat="42.78483" lon="0.3961">
        <ele>1524</ele>
        <time>2021-01-16T10:08:52Z</time>
      </trkpt>
      <trkpt lat="42.78478" lon="0.39608">
        <ele>1529</ele>
        <time>2021-01-16T10:09:01Z</time>
      </trkpt>
      <trkpt lat="42.78471" lon="0.39605">
        <ele>1530</ele>
        <time>2021-01-16T10:09:09Z</time>
      </trkpt>
      <trkpt lat="42.78464" lon="0.39601">
        <ele>1533</ele>
        <time>2021-01-16T10:09:19Z</time>
      </trkpt>
      <trkpt lat="42.7845" lon="0.39594">
        <ele>1535</ele>
        <time>2021-01-16T10:09:40Z</time>
      </trkpt>
      <trkpt lat="42.78443" lon="0.39595">
        <ele>1535</ele>
        <time>2021-01-16T10:09:54Z</time>
      </trkpt>
      <trkpt lat="42.78435" lon="0.39591">
        <ele>1536</ele>
        <time>2021-01-16T10:10:02Z</time>
      </trkpt>
      <trkpt lat="42.78409" lon="0.39588">
        <ele>1538</ele>
        <time>2021-01-16T10:10:44Z</time>
      </trkpt>
      <trkpt lat="42.78404" lon="0.39587">
        <ele>1539</ele>
        <time>2021-01-16T10:11:49Z</time>
      </trkpt>
      <trkpt lat="42.78398" lon="0.39592">
        <ele>1540</ele>
        <time>2021-01-16T10:12:07Z</time>
      </trkpt>
      <trkpt lat="42.78391" lon="0.39596">
        <ele>1542</ele>
        <time>2021-01-16T10:12:16Z</time>
      </trkpt>
      <trkpt lat="42.78385" lon="0.39598">
        <ele>1543</ele>
        <time>2021-01-16T10:12:23Z</time>
      </trkpt>
      <trkpt lat="42.78381" lon="0.39602">
        <ele>1544</ele>
        <time>2021-01-16T10:12:32Z</time>
      </trkpt>
      <trkpt lat="42.78374" lon="0.39601">
        <ele>1546</ele>
        <time>2021-01-16T10:12:44Z</time>
      </trkpt>
      <trkpt lat="42.78366" lon="0.39602">
        <ele>1548</ele>
        <time>2021-01-16T10:13:04Z</time>
      </trkpt>
      <trkpt lat="42.7836" lon="0.39598">
        <ele>1550</ele>
        <time>2021-01-16T10:13:17Z</time>
      </trkpt>
      <trkpt lat="42.78355" lon="0.39601">
        <ele>1551</ele>
        <time>2021-01-16T10:13:23Z</time>
      </trkpt>
      <trkpt lat="42.78349" lon="0.39598">
        <ele>1554</ele>
        <time>2021-01-16T10:13:42Z</time>
      </trkpt>
      <trkpt lat="42.78341" lon="0.39597">
        <ele>1556</ele>
        <time>2021-01-16T10:14:00Z</time>
      </trkpt>
      <trkpt lat="42.78335" lon="0.39602">
        <ele>1557</ele>
        <time>2021-01-16T10:14:13Z</time>
      </trkpt>
      <trkpt lat="42.78333" lon="0.39601">
        <ele>1563</ele>
        <time>2021-01-16T10:17:26Z</time>
      </trkpt>
      <trkpt lat="42.78328" lon="0.396">
        <ele>1563</ele>
        <time>2021-01-16T10:17:34Z</time>
      </trkpt>
      <trkpt lat="42.78325" lon="0.39594">
        <ele>1563</ele>
        <time>2021-01-16T10:18:05Z</time>
      </trkpt>
      <trkpt lat="42.78322" lon="0.39587">
        <ele>1564</ele>
        <time>2021-01-16T10:18:15Z</time>
      </trkpt>
      <trkpt lat="42.78319" lon="0.3958">
        <ele>1564</ele>
        <time>2021-01-16T10:18:22Z</time>
      </trkpt>
      <trkpt lat="42.7832" lon="0.39573">
        <ele>1563</ele>
        <time>2021-01-16T10:18:29Z</time>
      </trkpt>
      <trkpt lat="42.78315" lon="0.3957">
        <ele>1562</ele>
        <time>2021-01-16T10:18:38Z</time>
      </trkpt>
      <trkpt lat="42.78309" lon="0.39564">
        <ele>1563</ele>
        <time>2021-01-16T10:18:50Z</time>
      </trkpt>
      <trkpt lat="42.78303" lon="0.39558">
        <ele>1563</ele>
        <time>2021-01-16T10:18:58Z</time>
      </trkpt>
      <trkpt lat="42.78296" lon="0.39553">
        <ele>1564</ele>
        <time>2021-01-16T10:19:06Z</time>
      </trkpt>
      <trkpt lat="42.78292" lon="0.39545">
        <ele>1565</ele>
        <time>2021-01-16T10:19:14Z</time>
      </trkpt>
      <trkpt lat="42.78291" lon="0.39534">
        <ele>1566</ele>
        <time>2021-01-16T10:19:27Z</time>
      </trkpt>
      <trkpt lat="42.78288" lon="0.39524">
        <ele>1567</ele>
        <time>2021-01-16T10:19:35Z</time>
      </trkpt>
      <trkpt lat="42.78286" lon="0.39514">
        <ele>1570</ele>
        <time>2021-01-16T10:19:53Z</time>
      </trkpt>
      <trkpt lat="42.78285" lon="0.39504">
        <ele>1571</ele>
        <time>2021-01-16T10:20:03Z</time>
      </trkpt>
      <trkpt lat="42.78281" lon="0.39495">
        <ele>1575</ele>
        <time>2021-01-16T10:20:34Z</time>
      </trkpt>
      <trkpt lat="42.78275" lon="0.39489">
        <ele>1576</ele>
        <time>2021-01-16T10:20:40Z</time>
      </trkpt>
      <trkpt lat="42.78272" lon="0.39495">
        <ele>1576</ele>
        <time>2021-01-16T10:20:47Z</time>
      </trkpt>
      <trkpt lat="42.78264" lon="0.39506">
        <ele>1579</ele>
        <time>2021-01-16T10:21:06Z</time>
      </trkpt>
      <trkpt lat="42.78258" lon="0.3952">
        <ele>1584</ele>
        <time>2021-01-16T10:21:24Z</time>
      </trkpt>
      <trkpt lat="42.78255" lon="0.39518">
        <ele>1587</ele>
        <time>2021-01-16T10:21:45Z</time>
      </trkpt>
      <trkpt lat="42.78257" lon="0.39511">
        <ele>1587</ele>
        <time>2021-01-16T10:21:52Z</time>
      </trkpt>
      <trkpt lat="42.78256" lon="0.39504">
        <ele>1589</ele>
        <time>2021-01-16T10:21:59Z</time>
      </trkpt>
      <trkpt lat="42.78256" lon="0.39495">
        <ele>1590</ele>
        <time>2021-01-16T10:22:06Z</time>
      </trkpt>
      <trkpt lat="42.78255" lon="0.39487">
        <ele>1592</ele>
        <time>2021-01-16T10:22:15Z</time>
      </trkpt>
      <trkpt lat="42.78252" lon="0.39481">
        <ele>1592</ele>
        <time>2021-01-16T10:22:28Z</time>
      </trkpt>
      <trkpt lat="42.78249" lon="0.39474">
        <ele>1594</ele>
        <time>2021-01-16T10:22:39Z</time>
      </trkpt>
      <trkpt lat="42.78246" lon="0.39467">
        <ele>1596</ele>
        <time>2021-01-16T10:22:48Z</time>
      </trkpt>
      <trkpt lat="42.78241" lon="0.3947">
        <ele>1598</ele>
        <time>2021-01-16T10:22:59Z</time>
      </trkpt>
      <trkpt lat="42.78238" lon="0.39477">
        <ele>1598</ele>
        <time>2021-01-16T10:23:03Z</time>
      </trkpt>
      <trkpt lat="42.78237" lon="0.39484">
        <ele>1600</ele>
        <time>2021-01-16T10:23:11Z</time>
      </trkpt>
      <trkpt lat="42.78234" lon="0.395">
        <ele>1604</ele>
        <time>2021-01-16T10:23:31Z</time>
      </trkpt>
      <trkpt lat="42.78229" lon="0.39504">
        <ele>1605</ele>
        <time>2021-01-16T10:23:43Z</time>
      </trkpt>
      <trkpt lat="42.78226" lon="0.39499">
        <ele>1607</ele>
        <time>2021-01-16T10:24:07Z</time>
      </trkpt>
      <trkpt lat="42.7822" lon="0.39501">
        <ele>1608</ele>
        <time>2021-01-16T10:24:26Z</time>
      </trkpt>
      <trkpt lat="42.78214" lon="0.39504">
        <ele>1610</ele>
        <time>2021-01-16T10:24:31Z</time>
      </trkpt>
      <trkpt lat="42.78211" lon="0.3951">
        <ele>1611</ele>
        <time>2021-01-16T10:24:39Z</time>
      </trkpt>
      <trkpt lat="42.78201" lon="0.39517">
        <ele>1615</ele>
        <time>2021-01-16T10:25:02Z</time>
      </trkpt>
      <trkpt lat="42.78197" lon="0.39524">
        <ele>1618</ele>
        <time>2021-01-16T10:25:16Z</time>
      </trkpt>
      <trkpt lat="42.78192" lon="0.39518">
        <ele>1619</ele>
        <time>2021-01-16T10:25:33Z</time>
      </trkpt>
      <trkpt lat="42.78189" lon="0.39498">
        <ele>1625</ele>
        <time>2021-01-16T10:26:05Z</time>
      </trkpt>
      <trkpt lat="42.78189" lon="0.39492">
        <ele>1627</ele>
        <time>2021-01-16T10:29:09Z</time>
      </trkpt>
      <trkpt lat="42.78188" lon="0.39484">
        <ele>1627</ele>
        <time>2021-01-16T10:29:23Z</time>
      </trkpt>
      <trkpt lat="42.78191" lon="0.39469">
        <ele>1629</ele>
        <time>2021-01-16T10:29:31Z</time>
      </trkpt>
      <trkpt lat="42.78192" lon="0.39462">
        <ele>1630</ele>
        <time>2021-01-16T10:29:39Z</time>
      </trkpt>
      <trkpt lat="42.78192" lon="0.39453">
        <ele>1629</ele>
        <time>2021-01-16T10:29:47Z</time>
      </trkpt>
      <trkpt lat="42.78191" lon="0.39446">
        <ele>1630</ele>
        <time>2021-01-16T10:29:56Z</time>
      </trkpt>
      <trkpt lat="42.78186" lon="0.39444">
        <ele>1631</ele>
        <time>2021-01-16T10:30:16Z</time>
      </trkpt>
      <trkpt lat="42.78181" lon="0.39443">
        <ele>1635</ele>
        <time>2021-01-16T10:30:27Z</time>
      </trkpt>
      <trkpt lat="42.78179" lon="0.39435">
        <ele>1636</ele>
        <time>2021-01-16T10:30:32Z</time>
      </trkpt>
      <trkpt lat="42.78178" lon="0.39418">
        <ele>1640</ele>
        <time>2021-01-16T10:30:56Z</time>
      </trkpt>
      <trkpt lat="42.78178" lon="0.3941">
        <ele>1642</ele>
        <time>2021-01-16T10:31:02Z</time>
      </trkpt>
      <trkpt lat="42.78178" lon="0.39402">
        <ele>1643</ele>
        <time>2021-01-16T10:31:10Z</time>
      </trkpt>
      <trkpt lat="42.78174" lon="0.39395">
        <ele>1644</ele>
        <time>2021-01-16T10:31:21Z</time>
      </trkpt>
      <trkpt lat="42.7817" lon="0.39389">
        <ele>1645</ele>
        <time>2021-01-16T10:31:43Z</time>
      </trkpt>
      <trkpt lat="42.78168" lon="0.39374">
        <ele>1649</ele>
        <time>2021-01-16T10:32:02Z</time>
      </trkpt>
      <trkpt lat="42.7817" lon="0.39368">
        <ele>1653</ele>
        <time>2021-01-16T10:32:05Z</time>
      </trkpt>
      <trkpt lat="42.78168" lon="0.39361">
        <ele>1654</ele>
        <time>2021-01-16T10:32:15Z</time>
      </trkpt>
      <trkpt lat="42.7817" lon="0.39353">
        <ele>1654</ele>
        <time>2021-01-16T10:32:27Z</time>
      </trkpt>
      <trkpt lat="42.78169" lon="0.39346">
        <ele>1655</ele>
        <time>2021-01-16T10:32:36Z</time>
      </trkpt>
      <trkpt lat="42.78166" lon="0.39339">
        <ele>1656</ele>
        <time>2021-01-16T10:32:47Z</time>
      </trkpt>
      <trkpt lat="42.78158" lon="0.39328">
        <ele>1656</ele>
        <time>2021-01-16T10:33:06Z</time>
      </trkpt>
      <trkpt lat="42.78156" lon="0.39321">
        <ele>1656</ele>
        <time>2021-01-16T10:33:12Z</time>
      </trkpt>
      <trkpt lat="42.78157" lon="0.39313">
        <ele>1657</ele>
        <time>2021-01-16T10:33:23Z</time>
      </trkpt>
      <trkpt lat="42.78156" lon="0.39306">
        <ele>1658</ele>
        <time>2021-01-16T10:33:35Z</time>
      </trkpt>
      <trkpt lat="42.7815" lon="0.39305">
        <ele>1659</ele>
        <time>2021-01-16T10:33:39Z</time>
      </trkpt>
      <trkpt lat="42.78147" lon="0.39311">
        <ele>1659</ele>
        <time>2021-01-16T10:33:44Z</time>
      </trkpt>
      <trkpt lat="42.78141" lon="0.39333">
        <ele>1663</ele>
        <time>2021-01-16T10:34:19Z</time>
      </trkpt>
      <trkpt lat="42.78138" lon="0.3934">
        <ele>1664</ele>
        <time>2021-01-16T10:34:34Z</time>
      </trkpt>
      <trkpt lat="42.78133" lon="0.39341">
        <ele>1669</ele>
        <time>2021-01-16T10:35:23Z</time>
      </trkpt>
      <trkpt lat="42.7813" lon="0.39334">
        <ele>1670</ele>
        <time>2021-01-16T10:35:38Z</time>
      </trkpt>
      <trkpt lat="42.78124" lon="0.39321">
        <ele>1677</ele>
        <time>2021-01-16T10:36:04Z</time>
      </trkpt>
      <trkpt lat="42.78122" lon="0.39314">
        <ele>1678</ele>
        <time>2021-01-16T10:36:08Z</time>
      </trkpt>
      <trkpt lat="42.78118" lon="0.39299">
        <ele>1680</ele>
        <time>2021-01-16T10:36:28Z</time>
      </trkpt>
      <trkpt lat="42.78112" lon="0.39301">
        <ele>1680</ele>
        <time>2021-01-16T10:36:43Z</time>
      </trkpt>
      <trkpt lat="42.78109" lon="0.39304">
        <ele>1681</ele>
        <time>2021-01-16T10:36:48Z</time>
      </trkpt>
      <trkpt lat="42.78107" lon="0.39312">
        <ele>1682</ele>
        <time>2021-01-16T10:36:54Z</time>
      </trkpt>
      <trkpt lat="42.78103" lon="0.39317">
        <ele>1682</ele>
        <time>2021-01-16T10:37:02Z</time>
      </trkpt>
      <trkpt lat="42.78102" lon="0.39322">
        <ele>1683</ele>
        <time>2021-01-16T10:37:11Z</time>
      </trkpt>
      <trkpt lat="42.78097" lon="0.39326">
        <ele>1685</ele>
        <time>2021-01-16T10:37:21Z</time>
      </trkpt>
      <trkpt lat="42.78096" lon="0.39334">
        <ele>1687</ele>
        <time>2021-01-16T10:37:32Z</time>
      </trkpt>
      <trkpt lat="42.78094" lon="0.39332">
        <ele>1690</ele>
        <time>2021-01-16T10:37:52Z</time>
      </trkpt>
      <trkpt lat="42.78095" lon="0.39325">
        <ele>1691</ele>
        <time>2021-01-16T10:38:01Z</time>
      </trkpt>
      <trkpt lat="42.78094" lon="0.39318">
        <ele>1694</ele>
        <time>2021-01-16T10:38:06Z</time>
      </trkpt>
      <trkpt lat="42.78094" lon="0.39309">
        <ele>1695</ele>
        <time>2021-01-16T10:38:11Z</time>
      </trkpt>
      <trkpt lat="42.78092" lon="0.39301">
        <ele>1698</ele>
        <time>2021-01-16T10:38:19Z</time>
      </trkpt>
      <trkpt lat="42.78091" lon="0.39293">
        <ele>1699</ele>
        <time>2021-01-16T10:38:45Z</time>
      </trkpt>
      <trkpt lat="42.78087" lon="0.39289">
        <ele>1702</ele>
        <time>2021-01-16T10:39:04Z</time>
      </trkpt>
      <trkpt lat="42.78083" lon="0.39283">
        <ele>1702</ele>
        <time>2021-01-16T10:39:10Z</time>
      </trkpt>
      <trkpt lat="42.78081" lon="0.39276">
        <ele>1704</ele>
        <time>2021-01-16T10:39:23Z</time>
      </trkpt>
      <trkpt lat="42.78074" lon="0.39279">
        <ele>1707</ele>
        <time>2021-01-16T10:41:48Z</time>
      </trkpt>
      <trkpt lat="42.78075" lon="0.39285">
        <ele>1708</ele>
        <time>2021-01-16T10:42:02Z</time>
      </trkpt>
      <trkpt lat="42.78073" lon="0.39293">
        <ele>1708</ele>
        <time>2021-01-16T10:42:24Z</time>
      </trkpt>
      <trkpt lat="42.78069" lon="0.39298">
        <ele>1708</ele>
        <time>2021-01-16T10:42:45Z</time>
      </trkpt>
      <trkpt lat="42.78065" lon="0.39303">
        <ele>1709</ele>
        <time>2021-01-16T10:42:57Z</time>
      </trkpt>
      <trkpt lat="42.78063" lon="0.39311">
        <ele>1712</ele>
        <time>2021-01-16T10:43:17Z</time>
      </trkpt>
      <trkpt lat="42.78061" lon="0.39319">
        <ele>1713</ele>
        <time>2021-01-16T10:43:23Z</time>
      </trkpt>
      <trkpt lat="42.78059" lon="0.39322">
        <ele>1714</ele>
        <time>2021-01-16T10:43:28Z</time>
      </trkpt>
      <trkpt lat="42.78056" lon="0.39314">
        <ele>1716</ele>
        <time>2021-01-16T10:43:40Z</time>
      </trkpt>
      <trkpt lat="42.78058" lon="0.39309">
        <ele>1718</ele>
        <time>2021-01-16T10:43:53Z</time>
      </trkpt>
      <trkpt lat="42.78056" lon="0.39308">
        <ele>1720</ele>
        <time>2021-01-16T10:44:04Z</time>
      </trkpt>
      <trkpt lat="42.78054" lon="0.39304">
        <ele>1721</ele>
        <time>2021-01-16T10:45:09Z</time>
      </trkpt>
      <trkpt lat="42.7805" lon="0.39297">
        <ele>1725</ele>
        <time>2021-01-16T10:45:25Z</time>
      </trkpt>
      <trkpt lat="42.78048" lon="0.39294">
        <ele>1726</ele>
        <time>2021-01-16T10:45:30Z</time>
      </trkpt>
      <trkpt lat="42.78046" lon="0.39289">
        <ele>1727</ele>
        <time>2021-01-16T10:45:34Z</time>
      </trkpt>
      <trkpt lat="42.7804" lon="0.39291">
        <ele>1727</ele>
        <time>2021-01-16T10:45:49Z</time>
      </trkpt>
      <trkpt lat="42.78035" lon="0.39295">
        <ele>1727</ele>
        <time>2021-01-16T10:45:55Z</time>
      </trkpt>
      <trkpt lat="42.78031" lon="0.393">
        <ele>1728</ele>
        <time>2021-01-16T10:46:07Z</time>
      </trkpt>
      <trkpt lat="42.78026" lon="0.39306">
        <ele>1731</ele>
        <time>2021-01-16T10:46:23Z</time>
      </trkpt>
      <trkpt lat="42.78021" lon="0.39309">
        <ele>1731</ele>
        <time>2021-01-16T10:46:32Z</time>
      </trkpt>
      <trkpt lat="42.7802" lon="0.39314">
        <ele>1734</ele>
        <time>2021-01-16T10:47:07Z</time>
      </trkpt>
      <trkpt lat="42.7802" lon="0.39319">
        <ele>1736</ele>
        <time>2021-01-16T10:47:12Z</time>
      </trkpt>
      <trkpt lat="42.78018" lon="0.39324">
        <ele>1736</ele>
        <time>2021-01-16T10:47:18Z</time>
      </trkpt>
      <trkpt lat="42.78012" lon="0.39325">
        <ele>1737</ele>
        <time>2021-01-16T10:47:33Z</time>
      </trkpt>
      <trkpt lat="42.78007" lon="0.39322">
        <ele>1741</ele>
        <time>2021-01-16T10:48:59Z</time>
      </trkpt>
      <trkpt lat="42.77991" lon="0.39332">
        <ele>1745</ele>
        <time>2021-01-16T10:49:40Z</time>
      </trkpt>
      <trkpt lat="42.77985" lon="0.39336">
        <ele>1747</ele>
        <time>2021-01-16T10:49:47Z</time>
      </trkpt>
      <trkpt lat="42.77969" lon="0.39338">
        <ele>1753</ele>
        <time>2021-01-16T10:50:23Z</time>
      </trkpt>
      <trkpt lat="42.77964" lon="0.39337">
        <ele>1753</ele>
        <time>2021-01-16T10:50:31Z</time>
      </trkpt>
      <trkpt lat="42.77961" lon="0.39338">
        <ele>1753</ele>
        <time>2021-01-16T10:50:38Z</time>
      </trkpt>
      <trkpt lat="42.77957" lon="0.39337">
        <ele>1756</ele>
        <time>2021-01-16T10:50:49Z</time>
      </trkpt>
      <trkpt lat="42.77954" lon="0.39333">
        <ele>1758</ele>
        <time>2021-01-16T10:51:02Z</time>
      </trkpt>
      <trkpt lat="42.7795" lon="0.39332">
        <ele>1759</ele>
        <time>2021-01-16T10:51:15Z</time>
      </trkpt>
      <trkpt lat="42.77946" lon="0.39331">
        <ele>1761</ele>
        <time>2021-01-16T10:51:27Z</time>
      </trkpt>
      <trkpt lat="42.77943" lon="0.39329">
        <ele>1762</ele>
        <time>2021-01-16T10:51:38Z</time>
      </trkpt>
      <trkpt lat="42.77938" lon="0.39329">
        <ele>1763</ele>
        <time>2021-01-16T10:51:47Z</time>
      </trkpt>
      <trkpt lat="42.7793" lon="0.39352">
        <ele>1767</ele>
        <time>2021-01-16T10:52:21Z</time>
      </trkpt>
      <trkpt lat="42.77928" lon="0.39356">
        <ele>1768</ele>
        <time>2021-01-16T10:52:27Z</time>
      </trkpt>
      <trkpt lat="42.77924" lon="0.39355">
        <ele>1768</ele>
        <time>2021-01-16T10:52:39Z</time>
      </trkpt>
      <trkpt lat="42.7792" lon="0.39353">
        <ele>1769</ele>
        <time>2021-01-16T10:52:46Z</time>
      </trkpt>
      <trkpt lat="42.77917" lon="0.39343">
        <ele>1771</ele>
        <time>2021-01-16T10:53:10Z</time>
      </trkpt>
      <trkpt lat="42.77918" lon="0.39337">
        <ele>1772</ele>
        <time>2021-01-16T10:53:18Z</time>
      </trkpt>
      <trkpt lat="42.77914" lon="0.39332">
        <ele>1773</ele>
        <time>2021-01-16T10:53:34Z</time>
      </trkpt>
      <trkpt lat="42.77909" lon="0.3933">
        <ele>1776</ele>
        <time>2021-01-16T10:53:56Z</time>
      </trkpt>
      <trkpt lat="42.77905" lon="0.39335">
        <ele>1776</ele>
        <time>2021-01-16T10:54:11Z</time>
      </trkpt>
      <trkpt lat="42.77902" lon="0.39341">
        <ele>1779</ele>
        <time>2021-01-16T10:54:30Z</time>
      </trkpt>
      <trkpt lat="42.77896" lon="0.39338">
        <ele>1781</ele>
        <time>2021-01-16T10:54:43Z</time>
      </trkpt>
      <trkpt lat="42.77891" lon="0.39332">
        <ele>1786</ele>
        <time>2021-01-16T10:55:11Z</time>
      </trkpt>
      <trkpt lat="42.77887" lon="0.39333">
        <ele>1789</ele>
        <time>2021-01-16T10:55:25Z</time>
      </trkpt>
      <trkpt lat="42.77884" lon="0.39332">
        <ele>1790</ele>
        <time>2021-01-16T10:55:41Z</time>
      </trkpt>
      <trkpt lat="42.77881" lon="0.39329">
        <ele>1791</ele>
        <time>2021-01-16T10:55:52Z</time>
      </trkpt>
      <trkpt lat="42.77878" lon="0.39329">
        <ele>1792</ele>
        <time>2021-01-16T10:56:08Z</time>
      </trkpt>
      <trkpt lat="42.77876" lon="0.39323">
        <ele>1793</ele>
        <time>2021-01-16T10:56:19Z</time>
      </trkpt>
      <trkpt lat="42.77875" lon="0.39319">
        <ele>1796</ele>
        <time>2021-01-16T10:56:27Z</time>
      </trkpt>
      <trkpt lat="42.77871" lon="0.3931">
        <ele>1798</ele>
        <time>2021-01-16T10:56:41Z</time>
      </trkpt>
      <trkpt lat="42.77866" lon="0.39311">
        <ele>1798</ele>
        <time>2021-01-16T10:56:56Z</time>
      </trkpt>
      <trkpt lat="42.77865" lon="0.39316">
        <ele>1795</ele>
        <time>2021-01-16T10:57:03Z</time>
      </trkpt>
      <trkpt lat="42.77864" lon="0.39326">
        <ele>1798</ele>
        <time>2021-01-16T10:57:21Z</time>
      </trkpt>
      <trkpt lat="42.7786" lon="0.39325">
        <ele>1799</ele>
        <time>2021-01-16T10:57:36Z</time>
      </trkpt>
      <trkpt lat="42.77859" lon="0.3932">
        <ele>1799</ele>
        <time>2021-01-16T10:57:41Z</time>
      </trkpt>
      <trkpt lat="42.7785" lon="0.39312">
        <ele>1803</ele>
        <time>2021-01-16T10:58:19Z</time>
      </trkpt>
      <trkpt lat="42.77847" lon="0.39316">
        <ele>1805</ele>
        <time>2021-01-16T10:58:42Z</time>
      </trkpt>
      <trkpt lat="42.77847" lon="0.39321">
        <ele>1805</ele>
        <time>2021-01-16T10:58:56Z</time>
      </trkpt>
      <trkpt lat="42.77842" lon="0.39317">
        <ele>1808</ele>
        <time>2021-01-16T11:02:38Z</time>
      </trkpt>
      <trkpt lat="42.77837" lon="0.39313">
        <ele>1810</ele>
        <time>2021-01-16T11:02:58Z</time>
      </trkpt>
      <trkpt lat="42.77833" lon="0.39309">
        <ele>1810</ele>
        <time>2021-01-16T11:03:09Z</time>
      </trkpt>
      <trkpt lat="42.77827" lon="0.39308">
        <ele>1812</ele>
        <time>2021-01-16T11:03:22Z</time>
      </trkpt>
      <trkpt lat="42.77826" lon="0.393">
        <ele>1815</ele>
        <time>2021-01-16T11:03:35Z</time>
      </trkpt>
      <trkpt lat="42.77817" lon="0.39295">
        <ele>1818</ele>
        <time>2021-01-16T11:04:35Z</time>
      </trkpt>
      <trkpt lat="42.77812" lon="0.39293">
        <ele>1820</ele>
        <time>2021-01-16T11:04:44Z</time>
      </trkpt>
      <trkpt lat="42.77808" lon="0.39289">
        <ele>1821</ele>
        <time>2021-01-16T11:04:56Z</time>
      </trkpt>
      <trkpt lat="42.77803" lon="0.39285">
        <ele>1823</ele>
        <time>2021-01-16T11:05:20Z</time>
      </trkpt>
      <trkpt lat="42.77799" lon="0.3928">
        <ele>1824</ele>
        <time>2021-01-16T11:05:43Z</time>
      </trkpt>
      <trkpt lat="42.77793" lon="0.3928">
        <ele>1826</ele>
        <time>2021-01-16T11:05:54Z</time>
      </trkpt>
      <trkpt lat="42.77791" lon="0.39275">
        <ele>1828</ele>
        <time>2021-01-16T11:06:09Z</time>
      </trkpt>
      <trkpt lat="42.77785" lon="0.39266">
        <ele>1830</ele>
        <time>2021-01-16T11:06:31Z</time>
      </trkpt>
      <trkpt lat="42.77784" lon="0.39261">
        <ele>1832</ele>
        <time>2021-01-16T11:06:41Z</time>
      </trkpt>
      <trkpt lat="42.77781" lon="0.39263">
        <ele>1833</ele>
        <time>2021-01-16T11:07:01Z</time>
      </trkpt>
      <trkpt lat="42.77779" lon="0.39258">
        <ele>1835</ele>
        <time>2021-01-16T11:07:15Z</time>
      </trkpt>
      <trkpt lat="42.77775" lon="0.39256">
        <ele>1836</ele>
        <time>2021-01-16T11:07:28Z</time>
      </trkpt>
      <trkpt lat="42.7777" lon="0.39256">
        <ele>1837</ele>
        <time>2021-01-16T11:07:49Z</time>
      </trkpt>
      <trkpt lat="42.77766" lon="0.39256">
        <ele>1840</ele>
        <time>2021-01-16T11:08:10Z</time>
      </trkpt>
      <trkpt lat="42.77763" lon="0.39254">
        <ele>1840</ele>
        <time>2021-01-16T11:08:22Z</time>
      </trkpt>
      <trkpt lat="42.7776" lon="0.39251">
        <ele>1843</ele>
        <time>2021-01-16T11:08:34Z</time>
      </trkpt>
      <trkpt lat="42.77756" lon="0.39249">
        <ele>1843</ele>
        <time>2021-01-16T11:08:45Z</time>
      </trkpt>
      <trkpt lat="42.77754" lon="0.39245">
        <ele>1847</ele>
        <time>2021-01-16T11:08:57Z</time>
      </trkpt>
      <trkpt lat="42.77751" lon="0.39242">
        <ele>1849</ele>
        <time>2021-01-16T11:09:06Z</time>
      </trkpt>
      <trkpt lat="42.77748" lon="0.39244">
        <ele>1850</ele>
        <time>2021-01-16T11:09:24Z</time>
      </trkpt>
      <trkpt lat="42.77742" lon="0.39245">
        <ele>1852</ele>
        <time>2021-01-16T11:10:04Z</time>
      </trkpt>
      <trkpt lat="42.77737" lon="0.39242">
        <ele>1854</ele>
        <time>2021-01-16T11:10:39Z</time>
      </trkpt>
      <trkpt lat="42.77732" lon="0.39238">
        <ele>1856</ele>
        <time>2021-01-16T11:10:54Z</time>
      </trkpt>
      <trkpt lat="42.77728" lon="0.39233">
        <ele>1858</ele>
        <time>2021-01-16T11:11:19Z</time>
      </trkpt>
      <trkpt lat="42.77723" lon="0.39229">
        <ele>1858</ele>
        <time>2021-01-16T11:11:25Z</time>
      </trkpt>
      <trkpt lat="42.77716" lon="0.39227">
        <ele>1861</ele>
        <time>2021-01-16T11:11:58Z</time>
      </trkpt>
      <trkpt lat="42.77712" lon="0.39226">
        <ele>1862</ele>
        <time>2021-01-16T11:12:10Z</time>
      </trkpt>
      <trkpt lat="42.7771" lon="0.39223">
        <ele>1864</ele>
        <time>2021-01-16T11:12:42Z</time>
      </trkpt>
      <trkpt lat="42.77706" lon="0.3922">
        <ele>1865</ele>
        <time>2021-01-16T11:14:54Z</time>
      </trkpt>
      <trkpt lat="42.77701" lon="0.39216">
        <ele>1865</ele>
        <time>2021-01-16T11:15:08Z</time>
      </trkpt>
      <trkpt lat="42.777" lon="0.3921">
        <ele>1866</ele>
        <time>2021-01-16T11:15:18Z</time>
      </trkpt>
      <trkpt lat="42.77698" lon="0.39205">
        <ele>1868</ele>
        <time>2021-01-16T11:18:02Z</time>
      </trkpt>
      <trkpt lat="42.77696" lon="0.39206">
        <ele>1869</ele>
        <time>2021-01-16T11:18:30Z</time>
      </trkpt>
      <trkpt lat="42.77701" lon="0.39209">
        <ele>1869</ele>
        <time>2021-01-16T11:19:14Z</time>
      </trkpt>
      <trkpt lat="42.77703" lon="0.39213">
        <ele>1869</ele>
        <time>2021-01-16T11:19:39Z</time>
      </trkpt>
      <trkpt lat="42.77701" lon="0.39212">
        <ele>1869</ele>
        <time>2021-01-16T11:20:21Z</time>
      </trkpt>
      <trkpt lat="42.77697" lon="0.3921">
        <ele>1870</ele>
        <time>2021-01-16T11:27:42Z</time>
      </trkpt>
      <trkpt lat="42.77705" lon="0.39209">
        <ele>1870</ele>
        <time>2021-01-16T11:31:11Z</time>
      </trkpt>
      <trkpt lat="42.777" lon="0.39208">
        <ele>1871</ele>
        <time>2021-01-16T11:46:44Z</time>
      </trkpt>
      <trkpt lat="42.77699" lon="0.39211">
        <ele>1867</ele>
        <time>2021-01-16T11:58:47Z</time>
      </trkpt>
      <trkpt lat="42.777" lon="0.39212">
        <ele>1872</ele>
        <time>2021-01-16T12:04:45Z</time>
      </trkpt>
      <trkpt lat="42.77701" lon="0.39211">
        <ele>1869</ele>
        <time>2021-01-16T12:08:56Z</time>
      </trkpt>
      <trkpt lat="42.77704" lon="0.39212">
        <ele>1868</ele>
        <time>2021-01-16T12:20:28Z</time>
      </trkpt>
      <trkpt lat="42.77705" lon="0.39217">
        <ele>1868</ele>
        <time>2021-01-16T12:20:42Z</time>
      </trkpt>
      <trkpt lat="42.77709" lon="0.3922">
        <ele>1869</ele>
        <time>2021-01-16T12:20:54Z</time>
      </trkpt>
      <trkpt lat="42.77712" lon="0.39223">
        <ele>1869</ele>
        <time>2021-01-16T12:21:01Z</time>
      </trkpt>
      <trkpt lat="42.77714" lon="0.39226">
        <ele>1868</ele>
        <time>2021-01-16T12:21:08Z</time>
      </trkpt>
      <trkpt lat="42.77719" lon="0.39231">
        <ele>1866</ele>
        <time>2021-01-16T12:21:23Z</time>
      </trkpt>
      <trkpt lat="42.77725" lon="0.39238">
        <ele>1865</ele>
        <time>2021-01-16T12:21:36Z</time>
      </trkpt>
      <trkpt lat="42.77728" lon="0.39242">
        <ele>1865</ele>
        <time>2021-01-16T12:21:45Z</time>
      </trkpt>
      <trkpt lat="42.77733" lon="0.39247">
        <ele>1865</ele>
        <time>2021-01-16T12:21:57Z</time>
      </trkpt>
      <trkpt lat="42.77735" lon="0.39248">
        <ele>1864</ele>
        <time>2021-01-16T12:22:01Z</time>
      </trkpt>
      <trkpt lat="42.77736" lon="0.3925">
        <ele>1862</ele>
        <time>2021-01-16T12:22:23Z</time>
      </trkpt>
      <trkpt lat="42.77738" lon="0.3925">
        <ele>1862</ele>
        <time>2021-01-16T12:22:27Z</time>
      </trkpt>
      <trkpt lat="42.77739" lon="0.39252">
        <ele>1861</ele>
        <time>2021-01-16T12:22:32Z</time>
      </trkpt>
      <trkpt lat="42.7774" lon="0.39252">
        <ele>1860</ele>
        <time>2021-01-16T12:22:36Z</time>
      </trkpt>
      <trkpt lat="42.77742" lon="0.3925">
        <ele>1860</ele>
        <time>2021-01-16T12:22:40Z</time>
      </trkpt>
      <trkpt lat="42.77743" lon="0.39249">
        <ele>1859</ele>
        <time>2021-01-16T12:22:47Z</time>
      </trkpt>
      <trkpt lat="42.77745" lon="0.39248">
        <ele>1858</ele>
        <time>2021-01-16T12:22:52Z</time>
      </trkpt>
      <trkpt lat="42.77747" lon="0.39247">
        <ele>1857</ele>
        <time>2021-01-16T12:23:04Z</time>
      </trkpt>
      <trkpt lat="42.77753" lon="0.3925">
        <ele>1854</ele>
        <time>2021-01-16T12:23:21Z</time>
      </trkpt>
      <trkpt lat="42.77754" lon="0.39251">
        <ele>1854</ele>
        <time>2021-01-16T12:23:27Z</time>
      </trkpt>
      <trkpt lat="42.77757" lon="0.39253">
        <ele>1853</ele>
        <time>2021-01-16T12:23:37Z</time>
      </trkpt>
      <trkpt lat="42.77764" lon="0.39258">
        <ele>1849</ele>
        <time>2021-01-16T12:24:00Z</time>
      </trkpt>
      <trkpt lat="42.77766" lon="0.39259">
        <ele>1848</ele>
        <time>2021-01-16T12:24:10Z</time>
      </trkpt>
      <trkpt lat="42.77768" lon="0.39259">
        <ele>1847</ele>
        <time>2021-01-16T12:24:18Z</time>
      </trkpt>
      <trkpt lat="42.77769" lon="0.39258">
        <ele>1846</ele>
        <time>2021-01-16T12:24:22Z</time>
      </trkpt>
      <trkpt lat="42.77773" lon="0.3926">
        <ele>1847</ele>
        <time>2021-01-16T12:26:30Z</time>
      </trkpt>
      <trkpt lat="42.77785" lon="0.39274">
        <ele>1840</ele>
        <time>2021-01-16T12:27:03Z</time>
      </trkpt>
      <trkpt lat="42.77789" lon="0.39277">
        <ele>1838</ele>
        <time>2021-01-16T12:27:13Z</time>
      </trkpt>
      <trkpt lat="42.77791" lon="0.39278">
        <ele>1837</ele>
        <time>2021-01-16T12:27:16Z</time>
      </trkpt>
      <trkpt lat="42.77793" lon="0.39279">
        <ele>1837</ele>
        <time>2021-01-16T12:27:19Z</time>
      </trkpt>
      <trkpt lat="42.77794" lon="0.3928">
        <ele>1836</ele>
        <time>2021-01-16T12:27:22Z</time>
      </trkpt>
      <trkpt lat="42.77798" lon="0.39284">
        <ele>1835</ele>
        <time>2021-01-16T12:27:32Z</time>
      </trkpt>
      <trkpt lat="42.77802" lon="0.39287">
        <ele>1833</ele>
        <time>2021-01-16T12:27:41Z</time>
      </trkpt>
      <trkpt lat="42.7781" lon="0.39294">
        <ele>1830</ele>
        <time>2021-01-16T12:27:58Z</time>
      </trkpt>
      <trkpt lat="42.77811" lon="0.39295">
        <ele>1830</ele>
        <time>2021-01-16T12:28:00Z</time>
      </trkpt>
      <trkpt lat="42.77812" lon="0.39297">
        <ele>1829</ele>
        <time>2021-01-16T12:28:04Z</time>
      </trkpt>
      <trkpt lat="42.77817" lon="0.39301">
        <ele>1827</ele>
        <time>2021-01-16T12:28:15Z</time>
      </trkpt>
      <trkpt lat="42.77819" lon="0.39302">
        <ele>1826</ele>
        <time>2021-01-16T12:28:21Z</time>
      </trkpt>
      <trkpt lat="42.77821" lon="0.393">
        <ele>1825</ele>
        <time>2021-01-16T12:28:26Z</time>
      </trkpt>
      <trkpt lat="42.77822" lon="0.39301">
        <ele>1825</ele>
        <time>2021-01-16T12:28:30Z</time>
      </trkpt>
      <trkpt lat="42.77823" lon="0.39302">
        <ele>1824</ele>
        <time>2021-01-16T12:28:37Z</time>
      </trkpt>
      <trkpt lat="42.77825" lon="0.39302">
        <ele>1824</ele>
        <time>2021-01-16T12:28:43Z</time>
      </trkpt>
      <trkpt lat="42.77827" lon="0.39303">
        <ele>1823</ele>
        <time>2021-01-16T12:28:46Z</time>
      </trkpt>
      <trkpt lat="42.77831" lon="0.39307">
        <ele>1821</ele>
        <time>2021-01-16T12:28:56Z</time>
      </trkpt>
      <trkpt lat="42.77843" lon="0.39318">
        <ele>1815</ele>
        <time>2021-01-16T12:29:27Z</time>
      </trkpt>
      <trkpt lat="42.77845" lon="0.39319">
        <ele>1815</ele>
        <time>2021-01-16T12:29:30Z</time>
      </trkpt>
      <trkpt lat="42.77849" lon="0.3932">
        <ele>1813</ele>
        <time>2021-01-16T12:29:41Z</time>
      </trkpt>
      <trkpt lat="42.7785" lon="0.39321">
        <ele>1812</ele>
        <time>2021-01-16T12:29:45Z</time>
      </trkpt>
      <trkpt lat="42.77851" lon="0.39321">
        <ele>1812</ele>
        <time>2021-01-16T12:29:47Z</time>
      </trkpt>
      <trkpt lat="42.77853" lon="0.39322">
        <ele>1811</ele>
        <time>2021-01-16T12:29:52Z</time>
      </trkpt>
      <trkpt lat="42.77855" lon="0.39323">
        <ele>1810</ele>
        <time>2021-01-16T12:29:56Z</time>
      </trkpt>
      <trkpt lat="42.77857" lon="0.39323">
        <ele>1810</ele>
        <time>2021-01-16T12:30:02Z</time>
      </trkpt>
      <trkpt lat="42.77859" lon="0.39324">
        <ele>1809</ele>
        <time>2021-01-16T12:30:07Z</time>
      </trkpt>
      <trkpt lat="42.77861" lon="0.39324">
        <ele>1808</ele>
        <time>2021-01-16T12:30:14Z</time>
      </trkpt>
      <trkpt lat="42.77863" lon="0.39325">
        <ele>1807</ele>
        <time>2021-01-16T12:30:19Z</time>
      </trkpt>
      <trkpt lat="42.77864" lon="0.39325">
        <ele>1806</ele>
        <time>2021-01-16T12:30:24Z</time>
      </trkpt>
      <trkpt lat="42.77867" lon="0.39323">
        <ele>1805</ele>
        <time>2021-01-16T12:30:34Z</time>
      </trkpt>
      <trkpt lat="42.77869" lon="0.39323">
        <ele>1804</ele>
        <time>2021-01-16T12:30:41Z</time>
      </trkpt>
      <trkpt lat="42.7787" lon="0.39322">
        <ele>1803</ele>
        <time>2021-01-16T12:30:47Z</time>
      </trkpt>
      <trkpt lat="42.77873" lon="0.39322">
        <ele>1801</ele>
        <time>2021-01-16T12:30:57Z</time>
      </trkpt>
      <trkpt lat="42.77877" lon="0.39319">
        <ele>1798</ele>
        <time>2021-01-16T12:31:17Z</time>
      </trkpt>
      <trkpt lat="42.77881" lon="0.39322">
        <ele>1797</ele>
        <time>2021-01-16T12:31:35Z</time>
      </trkpt>
      <trkpt lat="42.77884" lon="0.39323">
        <ele>1797</ele>
        <time>2021-01-16T12:31:44Z</time>
      </trkpt>
      <trkpt lat="42.77888" lon="0.39322">
        <ele>1797</ele>
        <time>2021-01-16T12:31:51Z</time>
      </trkpt>
      <trkpt lat="42.77891" lon="0.39323">
        <ele>1795</ele>
        <time>2021-01-16T12:31:58Z</time>
      </trkpt>
      <trkpt lat="42.77898" lon="0.39325">
        <ele>1791</ele>
        <time>2021-01-16T12:32:35Z</time>
      </trkpt>
      <trkpt lat="42.77908" lon="0.39327">
        <ele>1788</ele>
        <time>2021-01-16T12:33:11Z</time>
      </trkpt>
      <trkpt lat="42.7791" lon="0.39329">
        <ele>1787</ele>
        <time>2021-01-16T12:33:16Z</time>
      </trkpt>
      <trkpt lat="42.77913" lon="0.39335">
        <ele>1786</ele>
        <time>2021-01-16T12:33:26Z</time>
      </trkpt>
      <trkpt lat="42.77915" lon="0.39334">
        <ele>1784</ele>
        <time>2021-01-16T12:33:46Z</time>
      </trkpt>
      <trkpt lat="42.77917" lon="0.3934">
        <ele>1784</ele>
        <time>2021-01-16T12:34:14Z</time>
      </trkpt>
      <trkpt lat="42.77919" lon="0.39345">
        <ele>1782</ele>
        <time>2021-01-16T12:34:22Z</time>
      </trkpt>
      <trkpt lat="42.77919" lon="0.3935">
        <ele>1781</ele>
        <time>2021-01-16T12:34:29Z</time>
      </trkpt>
      <trkpt lat="42.77921" lon="0.39354">
        <ele>1780</ele>
        <time>2021-01-16T12:34:35Z</time>
      </trkpt>
      <trkpt lat="42.77922" lon="0.39356">
        <ele>1779</ele>
        <time>2021-01-16T12:34:39Z</time>
      </trkpt>
      <trkpt lat="42.77923" lon="0.39358">
        <ele>1778</ele>
        <time>2021-01-16T12:34:43Z</time>
      </trkpt>
      <trkpt lat="42.77924" lon="0.39358">
        <ele>1777</ele>
        <time>2021-01-16T12:34:46Z</time>
      </trkpt>
      <trkpt lat="42.77927" lon="0.39357">
        <ele>1776</ele>
        <time>2021-01-16T12:34:51Z</time>
      </trkpt>
      <trkpt lat="42.77929" lon="0.39355">
        <ele>1776</ele>
        <time>2021-01-16T12:34:53Z</time>
      </trkpt>
      <trkpt lat="42.77933" lon="0.39348">
        <ele>1775</ele>
        <time>2021-01-16T12:34:59Z</time>
      </trkpt>
      <trkpt lat="42.77934" lon="0.39347">
        <ele>1775</ele>
        <time>2021-01-16T12:35:17Z</time>
      </trkpt>
      <trkpt lat="42.77939" lon="0.39336">
        <ele>1774</ele>
        <time>2021-01-16T12:35:47Z</time>
      </trkpt>
      <trkpt lat="42.7794" lon="0.39333">
        <ele>1773</ele>
        <time>2021-01-16T12:35:50Z</time>
      </trkpt>
      <trkpt lat="42.77941" lon="0.39331">
        <ele>1772</ele>
        <time>2021-01-16T12:35:55Z</time>
      </trkpt>
      <trkpt lat="42.77952" lon="0.39336">
        <ele>1768</ele>
        <time>2021-01-16T12:36:22Z</time>
      </trkpt>
      <trkpt lat="42.77954" lon="0.39336">
        <ele>1767</ele>
        <time>2021-01-16T12:36:28Z</time>
      </trkpt>
      <trkpt lat="42.77958" lon="0.39338">
        <ele>1765</ele>
        <time>2021-01-16T12:36:37Z</time>
      </trkpt>
      <trkpt lat="42.7796" lon="0.39338">
        <ele>1765</ele>
        <time>2021-01-16T12:36:41Z</time>
      </trkpt>
      <trkpt lat="42.77978" lon="0.39339">
        <ele>1758</ele>
        <time>2021-01-16T12:37:11Z</time>
      </trkpt>
      <trkpt lat="42.77981" lon="0.39338">
        <ele>1758</ele>
        <time>2021-01-16T12:37:15Z</time>
      </trkpt>
      <trkpt lat="42.77985" lon="0.39335">
        <ele>1756</ele>
        <time>2021-01-16T12:37:25Z</time>
      </trkpt>
      <trkpt lat="42.77984" lon="0.39335">
        <ele>1756</ele>
        <time>2021-01-16T12:39:56Z</time>
      </trkpt>
      <trkpt lat="42.77982" lon="0.39331">
        <ele>1754</ele>
        <time>2021-01-16T12:43:04Z</time>
      </trkpt>
      <trkpt lat="42.77986" lon="0.3933">
        <ele>1752</ele>
        <time>2021-01-16T12:44:47Z</time>
      </trkpt>
      <trkpt lat="42.7799" lon="0.39329">
        <ele>1752</ele>
        <time>2021-01-16T12:45:05Z</time>
      </trkpt>
      <trkpt lat="42.77993" lon="0.39328">
        <ele>1753</ele>
        <time>2021-01-16T12:45:17Z</time>
      </trkpt>
      <trkpt lat="42.78001" lon="0.39327">
        <ele>1752</ele>
        <time>2021-01-16T12:45:47Z</time>
      </trkpt>
      <trkpt lat="42.78004" lon="0.39327">
        <ele>1752</ele>
        <time>2021-01-16T12:45:54Z</time>
      </trkpt>
      <trkpt lat="42.78008" lon="0.39327">
        <ele>1750</ele>
        <time>2021-01-16T12:46:06Z</time>
      </trkpt>
      <trkpt lat="42.78012" lon="0.39329">
        <ele>1750</ele>
        <time>2021-01-16T12:46:14Z</time>
      </trkpt>
      <trkpt lat="42.78016" lon="0.3933">
        <ele>1749</ele>
        <time>2021-01-16T12:46:20Z</time>
      </trkpt>
      <trkpt lat="42.78022" lon="0.39322">
        <ele>1747</ele>
        <time>2021-01-16T12:46:33Z</time>
      </trkpt>
      <trkpt lat="42.78025" lon="0.3932">
        <ele>1744</ele>
        <time>2021-01-16T12:46:39Z</time>
      </trkpt>
      <trkpt lat="42.7803" lon="0.39323">
        <ele>1742</ele>
        <time>2021-01-16T12:46:47Z</time>
      </trkpt>
      <trkpt lat="42.78034" lon="0.39324">
        <ele>1740</ele>
        <time>2021-01-16T12:46:55Z</time>
      </trkpt>
      <trkpt lat="42.78036" lon="0.39324">
        <ele>1740</ele>
        <time>2021-01-16T12:46:59Z</time>
      </trkpt>
      <trkpt lat="42.78038" lon="0.39325">
        <ele>1739</ele>
        <time>2021-01-16T12:47:03Z</time>
      </trkpt>
      <trkpt lat="42.7804" lon="0.39327">
        <ele>1738</ele>
        <time>2021-01-16T12:47:07Z</time>
      </trkpt>
      <trkpt lat="42.78041" lon="0.39325">
        <ele>1737</ele>
        <time>2021-01-16T12:47:10Z</time>
      </trkpt>
      <trkpt lat="42.78042" lon="0.39321">
        <ele>1737</ele>
        <time>2021-01-16T12:47:14Z</time>
      </trkpt>
      <trkpt lat="42.78043" lon="0.39319">
        <ele>1736</ele>
        <time>2021-01-16T12:47:16Z</time>
      </trkpt>
      <trkpt lat="42.78044" lon="0.39314">
        <ele>1735</ele>
        <time>2021-01-16T12:47:20Z</time>
      </trkpt>
      <trkpt lat="42.78043" lon="0.39309">
        <ele>1735</ele>
        <time>2021-01-16T12:47:24Z</time>
      </trkpt>
      <trkpt lat="42.78041" lon="0.39306">
        <ele>1734</ele>
        <time>2021-01-16T12:47:31Z</time>
      </trkpt>
      <trkpt lat="42.78041" lon="0.39304">
        <ele>1734</ele>
        <time>2021-01-16T12:47:38Z</time>
      </trkpt>
      <trkpt lat="42.7804" lon="0.393">
        <ele>1733</ele>
        <time>2021-01-16T12:47:45Z</time>
      </trkpt>
      <trkpt lat="42.78042" lon="0.3929">
        <ele>1731</ele>
        <time>2021-01-16T12:47:56Z</time>
      </trkpt>
      <trkpt lat="42.78048" lon="0.39298">
        <ele>1729</ele>
        <time>2021-01-16T12:48:09Z</time>
      </trkpt>
      <trkpt lat="42.78051" lon="0.39305">
        <ele>1728</ele>
        <time>2021-01-16T12:48:18Z</time>
      </trkpt>
      <trkpt lat="42.78061" lon="0.39317">
        <ele>1725</ele>
        <time>2021-01-16T12:48:39Z</time>
      </trkpt>
      <trkpt lat="42.78066" lon="0.39327">
        <ele>1722</ele>
        <time>2021-01-16T12:48:54Z</time>
      </trkpt>
      <trkpt lat="42.78067" lon="0.39326">
        <ele>1722</ele>
        <time>2021-01-16T12:48:57Z</time>
      </trkpt>
      <trkpt lat="42.78068" lon="0.39323">
        <ele>1721</ele>
        <time>2021-01-16T12:48:59Z</time>
      </trkpt>
      <trkpt lat="42.78068" lon="0.39319">
        <ele>1720</ele>
        <time>2021-01-16T12:49:02Z</time>
      </trkpt>
      <trkpt lat="42.78068" lon="0.39315">
        <ele>1719</ele>
        <time>2021-01-16T12:49:05Z</time>
      </trkpt>
      <trkpt lat="42.78068" lon="0.39311">
        <ele>1718</ele>
        <time>2021-01-16T12:49:09Z</time>
      </trkpt>
      <trkpt lat="42.7807" lon="0.39302">
        <ele>1716</ele>
        <time>2021-01-16T12:49:20Z</time>
      </trkpt>
      <trkpt lat="42.78073" lon="0.39299">
        <ele>1715</ele>
        <time>2021-01-16T12:49:27Z</time>
      </trkpt>
      <trkpt lat="42.78075" lon="0.39294">
        <ele>1714</ele>
        <time>2021-01-16T12:49:32Z</time>
      </trkpt>
      <trkpt lat="42.78081" lon="0.39287">
        <ele>1713</ele>
        <time>2021-01-16T12:49:46Z</time>
      </trkpt>
      <trkpt lat="42.78084" lon="0.39287">
        <ele>1712</ele>
        <time>2021-01-16T12:49:53Z</time>
      </trkpt>
      <trkpt lat="42.78085" lon="0.39291">
        <ele>1709</ele>
        <time>2021-01-16T12:50:04Z</time>
      </trkpt>
      <trkpt lat="42.78088" lon="0.39294">
        <ele>1709</ele>
        <time>2021-01-16T12:50:12Z</time>
      </trkpt>
      <trkpt lat="42.78088" lon="0.39298">
        <ele>1708</ele>
        <time>2021-01-16T12:50:34Z</time>
      </trkpt>
      <trkpt lat="42.78091" lon="0.39301">
        <ele>1708</ele>
        <time>2021-01-16T12:50:52Z</time>
      </trkpt>
      <trkpt lat="42.78092" lon="0.39306">
        <ele>1708</ele>
        <time>2021-01-16T12:51:10Z</time>
      </trkpt>
      <trkpt lat="42.78099" lon="0.39334">
        <ele>1705</ele>
        <time>2021-01-16T12:51:40Z</time>
      </trkpt>
      <trkpt lat="42.78102" lon="0.39328">
        <ele>1704</ele>
        <time>2021-01-16T12:51:51Z</time>
      </trkpt>
      <trkpt lat="42.78104" lon="0.39323">
        <ele>1701</ele>
        <time>2021-01-16T12:51:55Z</time>
      </trkpt>
      <trkpt lat="42.7811" lon="0.39314">
        <ele>1699</ele>
        <time>2021-01-16T12:52:03Z</time>
      </trkpt>
      <trkpt lat="42.78113" lon="0.39312">
        <ele>1698</ele>
        <time>2021-01-16T12:52:10Z</time>
      </trkpt>
      <trkpt lat="42.78115" lon="0.39315">
        <ele>1697</ele>
        <time>2021-01-16T12:52:23Z</time>
      </trkpt>
      <trkpt lat="42.78119" lon="0.393">
        <ele>1697</ele>
        <time>2021-01-16T12:52:47Z</time>
      </trkpt>
      <trkpt lat="42.78124" lon="0.39298">
        <ele>1694</ele>
        <time>2021-01-16T12:52:55Z</time>
      </trkpt>
      <trkpt lat="42.78125" lon="0.39306">
        <ele>1693</ele>
        <time>2021-01-16T12:53:03Z</time>
      </trkpt>
      <trkpt lat="42.78126" lon="0.39313">
        <ele>1692</ele>
        <time>2021-01-16T12:53:06Z</time>
      </trkpt>
      <trkpt lat="42.78126" lon="0.39321">
        <ele>1691</ele>
        <time>2021-01-16T12:53:09Z</time>
      </trkpt>
      <trkpt lat="42.78124" lon="0.39325">
        <ele>1690</ele>
        <time>2021-01-16T12:53:12Z</time>
      </trkpt>
      <trkpt lat="42.78124" lon="0.3933">
        <ele>1689</ele>
        <time>2021-01-16T12:53:16Z</time>
      </trkpt>
      <trkpt lat="42.78126" lon="0.39336">
        <ele>1688</ele>
        <time>2021-01-16T12:53:23Z</time>
      </trkpt>
      <trkpt lat="42.78131" lon="0.39345">
        <ele>1686</ele>
        <time>2021-01-16T12:53:35Z</time>
      </trkpt>
      <trkpt lat="42.78133" lon="0.3935">
        <ele>1685</ele>
        <time>2021-01-16T12:53:48Z</time>
      </trkpt>
      <trkpt lat="42.78134" lon="0.39355">
        <ele>1684</ele>
        <time>2021-01-16T12:53:53Z</time>
      </trkpt>
      <trkpt lat="42.78136" lon="0.39359">
        <ele>1683</ele>
        <time>2021-01-16T12:53:58Z</time>
      </trkpt>
      <trkpt lat="42.78139" lon="0.39363">
        <ele>1683</ele>
        <time>2021-01-16T12:54:02Z</time>
      </trkpt>
      <trkpt lat="42.78142" lon="0.39349">
        <ele>1679</ele>
        <time>2021-01-16T12:54:31Z</time>
      </trkpt>
      <trkpt lat="42.78144" lon="0.39346">
        <ele>1677</ele>
        <time>2021-01-16T12:54:51Z</time>
      </trkpt>
      <trkpt lat="42.78146" lon="0.39342">
        <ele>1677</ele>
        <time>2021-01-16T12:55:09Z</time>
      </trkpt>
      <trkpt lat="42.78143" lon="0.39339">
        <ele>1674</ele>
        <time>2021-01-16T12:55:45Z</time>
      </trkpt>
      <trkpt lat="42.78145" lon="0.39336">
        <ele>1674</ele>
        <time>2021-01-16T12:55:53Z</time>
      </trkpt>
      <trkpt lat="42.78145" lon="0.39331">
        <ele>1674</ele>
        <time>2021-01-16T12:56:01Z</time>
      </trkpt>
      <trkpt lat="42.78146" lon="0.39325">
        <ele>1671</ele>
        <time>2021-01-16T12:56:06Z</time>
      </trkpt>
      <trkpt lat="42.78146" lon="0.3932">
        <ele>1670</ele>
        <time>2021-01-16T12:56:15Z</time>
      </trkpt>
      <trkpt lat="42.78151" lon="0.39312">
        <ele>1669</ele>
        <time>2021-01-16T12:56:22Z</time>
      </trkpt>
      <trkpt lat="42.78154" lon="0.39302">
        <ele>1667</ele>
        <time>2021-01-16T12:56:32Z</time>
      </trkpt>
      <trkpt lat="42.78158" lon="0.39305">
        <ele>1666</ele>
        <time>2021-01-16T12:56:39Z</time>
      </trkpt>
      <trkpt lat="42.78159" lon="0.39309">
        <ele>1665</ele>
        <time>2021-01-16T12:56:41Z</time>
      </trkpt>
      <trkpt lat="42.78162" lon="0.39359">
        <ele>1664</ele>
        <time>2021-01-16T12:57:15Z</time>
      </trkpt>
      <trkpt lat="42.78163" lon="0.39365">
        <ele>1664</ele>
        <time>2021-01-16T12:57:20Z</time>
      </trkpt>
      <trkpt lat="42.78165" lon="0.39368">
        <ele>1662</ele>
        <time>2021-01-16T12:57:28Z</time>
      </trkpt>
      <trkpt lat="42.78166" lon="0.39382">
        <ele>1659</ele>
        <time>2021-01-16T12:57:41Z</time>
      </trkpt>
      <trkpt lat="42.78168" lon="0.39387">
        <ele>1658</ele>
        <time>2021-01-16T12:57:46Z</time>
      </trkpt>
      <trkpt lat="42.78168" lon="0.39397">
        <ele>1658</ele>
        <time>2021-01-16T12:57:52Z</time>
      </trkpt>
      <trkpt lat="42.78169" lon="0.39405">
        <ele>1657</ele>
        <time>2021-01-16T12:57:59Z</time>
      </trkpt>
      <trkpt lat="42.78174" lon="0.3941">
        <ele>1655</ele>
        <time>2021-01-16T12:58:18Z</time>
      </trkpt>
      <trkpt lat="42.78175" lon="0.39416">
        <ele>1654</ele>
        <time>2021-01-16T12:58:24Z</time>
      </trkpt>
      <trkpt lat="42.78175" lon="0.39426">
        <ele>1653</ele>
        <time>2021-01-16T12:58:33Z</time>
      </trkpt>
      <trkpt lat="42.78178" lon="0.39437">
        <ele>1652</ele>
        <time>2021-01-16T12:58:45Z</time>
      </trkpt>
      <trkpt lat="42.78178" lon="0.39448">
        <ele>1649</ele>
        <time>2021-01-16T12:59:03Z</time>
      </trkpt>
      <trkpt lat="42.78182" lon="0.39451">
        <ele>1648</ele>
        <time>2021-01-16T12:59:09Z</time>
      </trkpt>
      <trkpt lat="42.78189" lon="0.39449">
        <ele>1647</ele>
        <time>2021-01-16T12:59:19Z</time>
      </trkpt>
      <trkpt lat="42.78192" lon="0.3945">
        <ele>1645</ele>
        <time>2021-01-16T12:59:23Z</time>
      </trkpt>
      <trkpt lat="42.78194" lon="0.39454">
        <ele>1644</ele>
        <time>2021-01-16T12:59:30Z</time>
      </trkpt>
      <trkpt lat="42.78191" lon="0.39459">
        <ele>1643</ele>
        <time>2021-01-16T12:59:35Z</time>
      </trkpt>
      <trkpt lat="42.78189" lon="0.39463">
        <ele>1642</ele>
        <time>2021-01-16T12:59:39Z</time>
      </trkpt>
      <trkpt lat="42.78191" lon="0.39481">
        <ele>1642</ele>
        <time>2021-01-16T12:59:51Z</time>
      </trkpt>
      <trkpt lat="42.78189" lon="0.39491">
        <ele>1639</ele>
        <time>2021-01-16T13:00:02Z</time>
      </trkpt>
      <trkpt lat="42.78188" lon="0.39497">
        <ele>1638</ele>
        <time>2021-01-16T13:00:07Z</time>
      </trkpt>
      <trkpt lat="42.78186" lon="0.3951">
        <ele>1636</ele>
        <time>2021-01-16T13:00:20Z</time>
      </trkpt>
      <trkpt lat="42.78194" lon="0.39524">
        <ele>1632</ele>
        <time>2021-01-16T13:00:38Z</time>
      </trkpt>
      <trkpt lat="42.78198" lon="0.39521">
        <ele>1631</ele>
        <time>2021-01-16T13:00:53Z</time>
      </trkpt>
      <trkpt lat="42.782" lon="0.3952">
        <ele>1630</ele>
        <time>2021-01-16T13:01:01Z</time>
      </trkpt>
      <trkpt lat="42.78199" lon="0.39516">
        <ele>1629</ele>
        <time>2021-01-16T13:01:27Z</time>
      </trkpt>
      <trkpt lat="42.78198" lon="0.39511">
        <ele>1628</ele>
        <time>2021-01-16T13:02:39Z</time>
      </trkpt>
      <trkpt lat="42.782" lon="0.39507">
        <ele>1628</ele>
        <time>2021-01-16T13:06:15Z</time>
      </trkpt>
      <trkpt lat="42.7821" lon="0.39489">
        <ele>1626</ele>
        <time>2021-01-16T13:06:44Z</time>
      </trkpt>
      <trkpt lat="42.7822" lon="0.3948">
        <ele>1626</ele>
        <time>2021-01-16T13:07:03Z</time>
      </trkpt>
      <trkpt lat="42.78223" lon="0.39474">
        <ele>1625</ele>
        <time>2021-01-16T13:07:14Z</time>
      </trkpt>
      <trkpt lat="42.78226" lon="0.39458">
        <ele>1623</ele>
        <time>2021-01-16T13:07:24Z</time>
      </trkpt>
      <trkpt lat="42.78227" lon="0.3945">
        <ele>1622</ele>
        <time>2021-01-16T13:07:29Z</time>
      </trkpt>
      <trkpt lat="42.78233" lon="0.39427">
        <ele>1620</ele>
        <time>2021-01-16T13:07:45Z</time>
      </trkpt>
      <trkpt lat="42.78235" lon="0.3941">
        <ele>1617</ele>
        <time>2021-01-16T13:08:04Z</time>
      </trkpt>
      <trkpt lat="42.78236" lon="0.39402">
        <ele>1615</ele>
        <time>2021-01-16T13:08:30Z</time>
      </trkpt>
      <trkpt lat="42.78244" lon="0.3938">
        <ele>1613</ele>
        <time>2021-01-16T13:09:03Z</time>
      </trkpt>
      <trkpt lat="42.78249" lon="0.39367">
        <ele>1612</ele>
        <time>2021-01-16T13:09:17Z</time>
      </trkpt>
      <trkpt lat="42.78251" lon="0.39361">
        <ele>1611</ele>
        <time>2021-01-16T13:09:22Z</time>
      </trkpt>
      <trkpt lat="42.78254" lon="0.39354">
        <ele>1610</ele>
        <time>2021-01-16T13:09:28Z</time>
      </trkpt>
      <trkpt lat="42.78263" lon="0.39341">
        <ele>1609</ele>
        <time>2021-01-16T13:09:39Z</time>
      </trkpt>
      <trkpt lat="42.78266" lon="0.3933">
        <ele>1609</ele>
        <time>2021-01-16T13:09:46Z</time>
      </trkpt>
      <trkpt lat="42.78267" lon="0.39319">
        <ele>1609</ele>
        <time>2021-01-16T13:09:53Z</time>
      </trkpt>
      <trkpt lat="42.78269" lon="0.3932">
        <ele>1608</ele>
        <time>2021-01-16T13:10:08Z</time>
      </trkpt>
      <trkpt lat="42.78272" lon="0.39316">
        <ele>1603</ele>
        <time>2021-01-16T13:10:19Z</time>
      </trkpt>
      <trkpt lat="42.78281" lon="0.39298">
        <ele>1600</ele>
        <time>2021-01-16T13:10:36Z</time>
      </trkpt>
      <trkpt lat="42.78284" lon="0.39299">
        <ele>1600</ele>
        <time>2021-01-16T13:10:40Z</time>
      </trkpt>
      <trkpt lat="42.78287" lon="0.39293">
        <ele>1599</ele>
        <time>2021-01-16T13:10:48Z</time>
      </trkpt>
      <trkpt lat="42.7829" lon="0.39291">
        <ele>1598</ele>
        <time>2021-01-16T13:10:51Z</time>
      </trkpt>
      <trkpt lat="42.78291" lon="0.39286">
        <ele>1598</ele>
        <time>2021-01-16T13:10:56Z</time>
      </trkpt>
      <trkpt lat="42.78292" lon="0.39281">
        <ele>1597</ele>
        <time>2021-01-16T13:11:01Z</time>
      </trkpt>
      <trkpt lat="42.78292" lon="0.39263">
        <ele>1596</ele>
        <time>2021-01-16T13:11:17Z</time>
      </trkpt>
      <trkpt lat="42.78292" lon="0.39258">
        <ele>1596</ele>
        <time>2021-01-16T13:11:20Z</time>
      </trkpt>
      <trkpt lat="42.7829" lon="0.3925">
        <ele>1594</ele>
        <time>2021-01-16T13:11:42Z</time>
      </trkpt>
      <trkpt lat="42.78289" lon="0.39245">
        <ele>1594</ele>
        <time>2021-01-16T13:11:46Z</time>
      </trkpt>
      <trkpt lat="42.78289" lon="0.39237">
        <ele>1594</ele>
        <time>2021-01-16T13:11:56Z</time>
      </trkpt>
      <trkpt lat="42.78289" lon="0.39232">
        <ele>1592</ele>
        <time>2021-01-16T13:12:02Z</time>
      </trkpt>
      <trkpt lat="42.78291" lon="0.39227">
        <ele>1592</ele>
        <time>2021-01-16T13:12:06Z</time>
      </trkpt>
      <trkpt lat="42.78291" lon="0.39216">
        <ele>1589</ele>
        <time>2021-01-16T13:12:15Z</time>
      </trkpt>
      <trkpt lat="42.7829" lon="0.39211">
        <ele>1587</ele>
        <time>2021-01-16T13:12:21Z</time>
      </trkpt>
      <trkpt lat="42.78289" lon="0.39206">
        <ele>1585</ele>
        <time>2021-01-16T13:12:25Z</time>
      </trkpt>
      <trkpt lat="42.7829" lon="0.39195">
        <ele>1583</ele>
        <time>2021-01-16T13:12:33Z</time>
      </trkpt>
      <trkpt lat="42.78292" lon="0.3919">
        <ele>1583</ele>
        <time>2021-01-16T13:12:37Z</time>
      </trkpt>
      <trkpt lat="42.78292" lon="0.39185">
        <ele>1584</ele>
        <time>2021-01-16T13:12:41Z</time>
      </trkpt>
      <trkpt lat="42.78292" lon="0.3918">
        <ele>1583</ele>
        <time>2021-01-16T13:12:45Z</time>
      </trkpt>
      <trkpt lat="42.78294" lon="0.39171">
        <ele>1582</ele>
        <time>2021-01-16T13:12:55Z</time>
      </trkpt>
      <trkpt lat="42.78297" lon="0.39169">
        <ele>1581</ele>
        <time>2021-01-16T13:13:11Z</time>
      </trkpt>
      <trkpt lat="42.78297" lon="0.39172">
        <ele>1579</ele>
        <time>2021-01-16T13:13:41Z</time>
      </trkpt>
      <trkpt lat="42.78299" lon="0.39164">
        <ele>1579</ele>
        <time>2021-01-16T13:14:25Z</time>
      </trkpt>
      <trkpt lat="42.78299" lon="0.39157">
        <ele>1579</ele>
        <time>2021-01-16T13:14:29Z</time>
      </trkpt>
      <trkpt lat="42.78298" lon="0.39149">
        <ele>1579</ele>
        <time>2021-01-16T13:14:32Z</time>
      </trkpt>
      <trkpt lat="42.78298" lon="0.39142">
        <ele>1580</ele>
        <time>2021-01-16T13:14:35Z</time>
      </trkpt>
      <trkpt lat="42.78299" lon="0.39139">
        <ele>1579</ele>
        <time>2021-01-16T13:14:55Z</time>
      </trkpt>
      <trkpt lat="42.78299" lon="0.39133">
        <ele>1579</ele>
        <time>2021-01-16T13:15:11Z</time>
      </trkpt>
      <trkpt lat="42.78296" lon="0.39129">
        <ele>1577</ele>
        <time>2021-01-16T13:15:16Z</time>
      </trkpt>
      <trkpt lat="42.78294" lon="0.39124">
        <ele>1576</ele>
        <time>2021-01-16T13:15:21Z</time>
      </trkpt>
      <trkpt lat="42.78294" lon="0.39119">
        <ele>1575</ele>
        <time>2021-01-16T13:15:25Z</time>
      </trkpt>
      <trkpt lat="42.78296" lon="0.39115">
        <ele>1574</ele>
        <time>2021-01-16T13:15:38Z</time>
      </trkpt>
      <trkpt lat="42.78298" lon="0.39099">
        <ele>1570</ele>
        <time>2021-01-16T13:15:59Z</time>
      </trkpt>
      <trkpt lat="42.78296" lon="0.39095">
        <ele>1568</ele>
        <time>2021-01-16T13:16:14Z</time>
      </trkpt>
      <trkpt lat="42.78296" lon="0.39062">
        <ele>1562</ele>
        <time>2021-01-16T13:16:44Z</time>
      </trkpt>
      <trkpt lat="42.78297" lon="0.39058">
        <ele>1562</ele>
        <time>2021-01-16T13:16:48Z</time>
      </trkpt>
      <trkpt lat="42.78296" lon="0.39054">
        <ele>1561</ele>
        <time>2021-01-16T13:16:54Z</time>
      </trkpt>
      <trkpt lat="42.78294" lon="0.39051">
        <ele>1560</ele>
        <time>2021-01-16T13:17:01Z</time>
      </trkpt>
      <trkpt lat="42.78295" lon="0.39045">
        <ele>1558</ele>
        <time>2021-01-16T13:17:12Z</time>
      </trkpt>
      <trkpt lat="42.78294" lon="0.39041">
        <ele>1557</ele>
        <time>2021-01-16T13:17:17Z</time>
      </trkpt>
      <trkpt lat="42.78296" lon="0.39036">
        <ele>1556</ele>
        <time>2021-01-16T13:17:27Z</time>
      </trkpt>
      <trkpt lat="42.78294" lon="0.3903">
        <ele>1556</ele>
        <time>2021-01-16T13:17:36Z</time>
      </trkpt>
      <trkpt lat="42.78291" lon="0.39026">
        <ele>1555</ele>
        <time>2021-01-16T13:17:39Z</time>
      </trkpt>
      <trkpt lat="42.78291" lon="0.39017">
        <ele>1555</ele>
        <time>2021-01-16T13:17:55Z</time>
      </trkpt>
      <trkpt lat="42.78292" lon="0.39008">
        <ele>1554</ele>
        <time>2021-01-16T13:18:13Z</time>
      </trkpt>
      <trkpt lat="42.7829" lon="0.39004">
        <ele>1552</ele>
        <time>2021-01-16T13:18:25Z</time>
      </trkpt>
      <trkpt lat="42.78291" lon="0.39001">
        <ele>1551</ele>
        <time>2021-01-16T13:19:09Z</time>
      </trkpt>
      <trkpt lat="42.78292" lon="0.39005">
        <ele>1550</ele>
        <time>2021-01-16T13:22:31Z</time>
      </trkpt>
      <trkpt lat="42.78302" lon="0.39029">
        <ele>1548</ele>
        <time>2021-01-16T13:22:59Z</time>
      </trkpt>
      <trkpt lat="42.78304" lon="0.39038">
        <ele>1548</ele>
        <time>2021-01-16T13:23:08Z</time>
      </trkpt>
      <trkpt lat="42.78315" lon="0.39058">
        <ele>1546</ele>
        <time>2021-01-16T13:23:29Z</time>
      </trkpt>
      <trkpt lat="42.78319" lon="0.39065">
        <ele>1546</ele>
        <time>2021-01-16T13:23:35Z</time>
      </trkpt>
      <trkpt lat="42.78321" lon="0.39072">
        <ele>1546</ele>
        <time>2021-01-16T13:23:42Z</time>
      </trkpt>
      <trkpt lat="42.78344" lon="0.39108">
        <ele>1547</ele>
        <time>2021-01-16T13:24:18Z</time>
      </trkpt>
      <trkpt lat="42.78353" lon="0.39119">
        <ele>1547</ele>
        <time>2021-01-16T13:24:31Z</time>
      </trkpt>
      <trkpt lat="42.78357" lon="0.39126">
        <ele>1547</ele>
        <time>2021-01-16T13:24:41Z</time>
      </trkpt>
      <trkpt lat="42.78369" lon="0.39155">
        <ele>1546</ele>
        <time>2021-01-16T13:25:05Z</time>
      </trkpt>
      <trkpt lat="42.78379" lon="0.39173">
        <ele>1544</ele>
        <time>2021-01-16T13:25:26Z</time>
      </trkpt>
      <trkpt lat="42.78384" lon="0.3918">
        <ele>1544</ele>
        <time>2021-01-16T13:25:36Z</time>
      </trkpt>
      <trkpt lat="42.78394" lon="0.39199">
        <ele>1543</ele>
        <time>2021-01-16T13:26:00Z</time>
      </trkpt>
      <trkpt lat="42.78399" lon="0.39207">
        <ele>1543</ele>
        <time>2021-01-16T13:26:04Z</time>
      </trkpt>
      <trkpt lat="42.78405" lon="0.39223">
        <ele>1542</ele>
        <time>2021-01-16T13:26:17Z</time>
      </trkpt>
      <trkpt lat="42.78409" lon="0.39231">
        <ele>1542</ele>
        <time>2021-01-16T13:26:22Z</time>
      </trkpt>
      <trkpt lat="42.78412" lon="0.39237">
        <ele>1542</ele>
        <time>2021-01-16T13:26:26Z</time>
      </trkpt>
      <trkpt lat="42.78416" lon="0.39244">
        <ele>1541</ele>
        <time>2021-01-16T13:26:33Z</time>
      </trkpt>
      <trkpt lat="42.78422" lon="0.39247">
        <ele>1541</ele>
        <time>2021-01-16T13:26:36Z</time>
      </trkpt>
      <trkpt lat="42.78432" lon="0.39258">
        <ele>1540</ele>
        <time>2021-01-16T13:26:52Z</time>
      </trkpt>
      <trkpt lat="42.78442" lon="0.39267">
        <ele>1539</ele>
        <time>2021-01-16T13:27:04Z</time>
      </trkpt>
      <trkpt lat="42.78453" lon="0.3929">
        <ele>1538</ele>
        <time>2021-01-16T13:27:27Z</time>
      </trkpt>
      <trkpt lat="42.78457" lon="0.39297">
        <ele>1537</ele>
        <time>2021-01-16T13:27:31Z</time>
      </trkpt>
      <trkpt lat="42.78462" lon="0.39303">
        <ele>1537</ele>
        <time>2021-01-16T13:27:36Z</time>
      </trkpt>
      <trkpt lat="42.78468" lon="0.39308">
        <ele>1537</ele>
        <time>2021-01-16T13:27:46Z</time>
      </trkpt>
      <trkpt lat="42.78483" lon="0.39323">
        <ele>1536</ele>
        <time>2021-01-16T13:28:09Z</time>
      </trkpt>
      <trkpt lat="42.78492" lon="0.39331">
        <ele>1534</ele>
        <time>2021-01-16T13:28:32Z</time>
      </trkpt>
      <trkpt lat="42.78509" lon="0.39353">
        <ele>1531</ele>
        <time>2021-01-16T13:29:07Z</time>
      </trkpt>
      <trkpt lat="42.78523" lon="0.39368">
        <ele>1527</ele>
        <time>2021-01-16T13:29:44Z</time>
      </trkpt>
      <trkpt lat="42.78534" lon="0.39376">
        <ele>1524</ele>
        <time>2021-01-16T13:30:07Z</time>
      </trkpt>
      <trkpt lat="42.78549" lon="0.3939">
        <ele>1517</ele>
        <time>2021-01-16T13:30:58Z</time>
      </trkpt>
      <trkpt lat="42.78569" lon="0.39409">
        <ele>1515</ele>
        <time>2021-01-16T13:31:33Z</time>
      </trkpt>
      <trkpt lat="42.78596" lon="0.39439">
        <ele>1513</ele>
        <time>2021-01-16T13:32:03Z</time>
      </trkpt>
      <trkpt lat="42.78603" lon="0.39446">
        <ele>1511</ele>
        <time>2021-01-16T13:32:09Z</time>
      </trkpt>
      <trkpt lat="42.7861" lon="0.39448">
        <ele>1508</ele>
        <time>2021-01-16T13:32:12Z</time>
      </trkpt>
      <trkpt lat="42.78617" lon="0.39449">
        <ele>1506</ele>
        <time>2021-01-16T13:32:17Z</time>
      </trkpt>
      <trkpt lat="42.78624" lon="0.39454">
        <ele>1503</ele>
        <time>2021-01-16T13:32:22Z</time>
      </trkpt>
      <trkpt lat="42.78652" lon="0.39475">
        <ele>1497</ele>
        <time>2021-01-16T13:32:58Z</time>
      </trkpt>
      <trkpt lat="42.78658" lon="0.39479">
        <ele>1497</ele>
        <time>2021-01-16T13:33:04Z</time>
      </trkpt>
      <trkpt lat="42.78679" lon="0.39489">
        <ele>1495</ele>
        <time>2021-01-16T13:33:19Z</time>
      </trkpt>
      <trkpt lat="42.78697" lon="0.39494">
        <ele>1495</ele>
        <time>2021-01-16T13:33:51Z</time>
      </trkpt>
      <trkpt lat="42.78713" lon="0.39497">
        <ele>1494</ele>
        <time>2021-01-16T13:34:02Z</time>
      </trkpt>
      <trkpt lat="42.78719" lon="0.395">
        <ele>1494</ele>
        <time>2021-01-16T13:34:06Z</time>
      </trkpt>
      <trkpt lat="42.7872" lon="0.39495">
        <ele>1494</ele>
        <time>2021-01-16T13:34:28Z</time>
      </trkpt>
      <trkpt lat="42.78723" lon="0.39495">
        <ele>1494</ele>
        <time>2021-01-16T13:35:13Z</time>
      </trkpt>
      <trkpt lat="42.78742" lon="0.39498">
        <ele>1493</ele>
        <time>2021-01-16T13:36:06Z</time>
      </trkpt>
      <trkpt lat="42.78752" lon="0.39492">
        <ele>1491</ele>
        <time>2021-01-16T13:36:42Z</time>
      </trkpt>
      <trkpt lat="42.78763" lon="0.39488">
        <ele>1490</ele>
        <time>2021-01-16T13:37:18Z</time>
      </trkpt>
      <trkpt lat="42.78773" lon="0.39488">
        <ele>1488</ele>
        <time>2021-01-16T13:37:54Z</time>
      </trkpt>
      <trkpt lat="42.78787" lon="0.39474">
        <ele>1484</ele>
        <time>2021-01-16T13:38:26Z</time>
      </trkpt>
      <trkpt lat="42.78791" lon="0.39469">
        <ele>1484</ele>
        <time>2021-01-16T13:38:42Z</time>
      </trkpt>
      <trkpt lat="42.78799" lon="0.39467">
        <ele>1482</ele>
        <time>2021-01-16T13:39:09Z</time>
      </trkpt>
      <trkpt lat="42.78805" lon="0.39475">
        <ele>1481</ele>
        <time>2021-01-16T13:39:16Z</time>
      </trkpt>
      <trkpt lat="42.78812" lon="0.39482">
        <ele>1476</ele>
        <time>2021-01-16T13:39:23Z</time>
      </trkpt>
      <trkpt lat="42.78822" lon="0.39485">
        <ele>1474</ele>
        <time>2021-01-16T13:39:25Z</time>
      </trkpt>
      <trkpt lat="42.78829" lon="0.3949">
        <ele>1472</ele>
        <time>2021-01-16T13:39:29Z</time>
      </trkpt>
      <trkpt lat="42.78836" lon="0.39481">
        <ele>1470</ele>
        <time>2021-01-16T13:39:38Z</time>
      </trkpt>
      <trkpt lat="42.78835" lon="0.39473">
        <ele>1469</ele>
        <time>2021-01-16T13:39:44Z</time>
      </trkpt>
      <trkpt lat="42.78832" lon="0.39442">
        <ele>1466</ele>
        <time>2021-01-16T13:39:58Z</time>
      </trkpt>
      <trkpt lat="42.7883" lon="0.39436">
        <ele>1466</ele>
        <time>2021-01-16T13:40:03Z</time>
      </trkpt>
      <trkpt lat="42.78831" lon="0.39429">
        <ele>1467</ele>
        <time>2021-01-16T13:40:07Z</time>
      </trkpt>
      <trkpt lat="42.78831" lon="0.39421">
        <ele>1466</ele>
        <time>2021-01-16T13:40:14Z</time>
      </trkpt>
      <trkpt lat="42.78832" lon="0.39414">
        <ele>1464</ele>
        <time>2021-01-16T13:40:17Z</time>
      </trkpt>
      <trkpt lat="42.78833" lon="0.39399">
        <ele>1464</ele>
        <time>2021-01-16T13:40:39Z</time>
      </trkpt>
      <trkpt lat="42.78834" lon="0.39393">
        <ele>1462</ele>
        <time>2021-01-16T13:40:45Z</time>
      </trkpt>
      <trkpt lat="42.78834" lon="0.39388">
        <ele>1462</ele>
        <time>2021-01-16T13:41:04Z</time>
      </trkpt>
      <trkpt lat="42.78835" lon="0.3938">
        <ele>1463</ele>
        <time>2021-01-16T13:41:21Z</time>
      </trkpt>
      <trkpt lat="42.78838" lon="0.39374">
        <ele>1462</ele>
        <time>2021-01-16T13:41:35Z</time>
      </trkpt>
      <trkpt lat="42.78841" lon="0.39367">
        <ele>1462</ele>
        <time>2021-01-16T13:41:40Z</time>
      </trkpt>
      <trkpt lat="42.78847" lon="0.39352">
        <ele>1462</ele>
        <time>2021-01-16T13:41:55Z</time>
      </trkpt>
      <trkpt lat="42.78852" lon="0.39346">
        <ele>1461</ele>
        <time>2021-01-16T13:42:05Z</time>
      </trkpt>
      <trkpt lat="42.78856" lon="0.39329">
        <ele>1459</ele>
        <time>2021-01-16T13:42:19Z</time>
      </trkpt>
      <trkpt lat="42.78855" lon="0.39321">
        <ele>1457</ele>
        <time>2021-01-16T13:42:29Z</time>
      </trkpt>
      <trkpt lat="42.78851" lon="0.39318">
        <ele>1456</ele>
        <time>2021-01-16T13:42:33Z</time>
      </trkpt>
      <trkpt lat="42.78849" lon="0.39314">
        <ele>1455</ele>
        <time>2021-01-16T13:42:38Z</time>
      </trkpt>
      <trkpt lat="42.78847" lon="0.3931">
        <ele>1455</ele>
        <time>2021-01-16T13:42:43Z</time>
      </trkpt>
      <trkpt lat="42.78843" lon="0.39303">
        <ele>1454</ele>
        <time>2021-01-16T13:42:52Z</time>
      </trkpt>
      <trkpt lat="42.78842" lon="0.39298">
        <ele>1454</ele>
        <time>2021-01-16T13:42:55Z</time>
      </trkpt>
      <trkpt lat="42.78846" lon="0.39296">
        <ele>1454</ele>
        <time>2021-01-16T13:43:01Z</time>
      </trkpt>
      <trkpt lat="42.7885" lon="0.3929">
        <ele>1453</ele>
        <time>2021-01-16T13:43:14Z</time>
      </trkpt>
      <trkpt lat="42.78844" lon="0.39288">
        <ele>1452</ele>
        <time>2021-01-16T13:43:31Z</time>
      </trkpt>
      <trkpt lat="42.78839" lon="0.39287">
        <ele>1451</ele>
        <time>2021-01-16T13:43:47Z</time>
      </trkpt>
      <trkpt lat="42.78816" lon="0.39293">
        <ele>1449</ele>
        <time>2021-01-16T13:44:18Z</time>
      </trkpt>
      <trkpt lat="42.78804" lon="0.39296">
        <ele>1450</ele>
        <time>2021-01-16T13:44:28Z</time>
      </trkpt>
      <trkpt lat="42.78798" lon="0.39293">
        <ele>1450</ele>
        <time>2021-01-16T13:44:35Z</time>
      </trkpt>
      <trkpt lat="42.78795" lon="0.39288">
        <ele>1451</ele>
        <time>2021-01-16T13:44:45Z</time>
      </trkpt>
      <trkpt lat="42.78796" lon="0.39275">
        <ele>1453</ele>
        <time>2021-01-16T13:44:54Z</time>
      </trkpt>
      <trkpt lat="42.788" lon="0.3927">
        <ele>1454</ele>
        <time>2021-01-16T13:45:28Z</time>
      </trkpt>
      <trkpt lat="42.78814" lon="0.39248">
        <ele>1455</ele>
        <time>2021-01-16T13:45:48Z</time>
      </trkpt>
      <trkpt lat="42.78816" lon="0.39246">
        <ele>1455</ele>
        <time>2021-01-16T13:45:51Z</time>
      </trkpt>
      <trkpt lat="42.78819" lon="0.39244">
        <ele>1455</ele>
        <time>2021-01-16T13:45:56Z</time>
      </trkpt>
      <trkpt lat="42.78818" lon="0.39238">
        <ele>1454</ele>
        <time>2021-01-16T13:50:09Z</time>
      </trkpt>
      <trkpt lat="42.78818" lon="0.39224">
        <ele>1454</ele>
        <time>2021-01-16T13:50:19Z</time>
      </trkpt>
      <trkpt lat="42.78815" lon="0.3923">
        <ele>1455</ele>
        <time>2021-01-16T13:50:51Z</time>
      </trkpt>
      <trkpt lat="42.78816" lon="0.39237">
        <ele>1456</ele>
        <time>2021-01-16T13:50:54Z</time>
      </trkpt>
      <trkpt lat="42.78816" lon="0.39243">
        <ele>1456</ele>
        <time>2021-01-16T13:50:58Z</time>
      </trkpt>
      <trkpt lat="42.78813" lon="0.39252">
        <ele>1456</ele>
        <time>2021-01-16T13:51:31Z</time>
      </trkpt>
      <trkpt lat="42.78808" lon="0.39254">
        <ele>1456</ele>
        <time>2021-01-16T13:51:36Z</time>
      </trkpt>
      <trkpt lat="42.78806" lon="0.39249">
        <ele>1455</ele>
        <time>2021-01-16T13:51:40Z</time>
      </trkpt>
      <trkpt lat="42.78802" lon="0.39248">
        <ele>1455</ele>
        <time>2021-01-16T13:51:45Z</time>
      </trkpt>
      <trkpt lat="42.78799" lon="0.39246">
        <ele>1454</ele>
        <time>2021-01-16T13:51:48Z</time>
      </trkpt>
      <trkpt lat="42.78799" lon="0.39243">
        <ele>1454</ele>
        <time>2021-01-16T13:52:13Z</time>
      </trkpt>
      <trkpt lat="42.78803" lon="0.39241">
        <ele>1454</ele>
        <time>2021-01-16T13:53:23Z</time>
      </trkpt>
      <trkpt lat="42.78806" lon="0.39238">
        <ele>1456</ele>
        <time>2021-01-16T13:54:23Z</time>
      </trkpt>
      <trkpt lat="42.78809" lon="0.39236">
        <ele>1456</ele>
        <time>2021-01-16T13:54:30Z</time>
      </trkpt>
      <trkpt lat="42.78813" lon="0.39233">
        <ele>1456</ele>
        <time>2021-01-16T13:54:40Z</time>
      </trkpt>
      <trkpt lat="42.78815" lon="0.39232">
        <ele>1455</ele>
        <time>2021-01-16T13:54:43Z</time>
      </trkpt>
      <trkpt lat="42.7882" lon="0.39231">
        <ele>1456</ele>
        <time>2021-01-16T13:54:49Z</time>
      </trkpt>
      <trkpt lat="42.78821" lon="0.39229">
        <ele>1456</ele>
        <time>2021-01-16T13:55:03Z</time>
      </trkpt>
      <trkpt lat="42.78822" lon="0.39227">
        <ele>1456</ele>
        <time>2021-01-16T13:55:05Z</time>
      </trkpt>
      <trkpt lat="42.78821" lon="0.39226">
        <ele>1456</ele>
        <time>2021-01-16T13:55:25Z</time>
      </trkpt>
      <trkpt lat="42.78821" lon="0.39224">
        <ele>1456</ele>
        <time>2021-01-16T13:55:40Z</time>
      </trkpt>
      <trkpt lat="42.78818" lon="0.39225">
        <ele>1456</ele>
        <time>2021-01-16T13:57:05Z</time>
      </trkpt>
      <trkpt lat="42.78818" lon="0.3923">
        <ele>1455</ele>
        <time>2021-01-16T13:59:40Z</time>
      </trkpt>
      <trkpt lat="42.78817" lon="0.39236">
        <ele>1451</ele>
        <time>2021-01-16T14:01:15Z</time>
      </trkpt>
      <trkpt lat="42.7882" lon="0.39239">
        <ele>1449</ele>
        <time>2021-01-16T14:02:46Z</time>
      </trkpt>
      <trkpt lat="42.78823" lon="0.39236">
        <ele>1449</ele>
        <time>2021-01-16T14:02:49Z</time>
      </trkpt>
      <trkpt lat="42.78839" lon="0.39221">
        <ele>1451</ele>
        <time>2021-01-16T14:03:03Z</time>
      </trkpt>
      <trkpt lat="42.78852" lon="0.39214">
        <ele>1455</ele>
        <time>2021-01-16T14:03:17Z</time>
      </trkpt>
      <trkpt lat="42.78857" lon="0.39208">
        <ele>1456</ele>
        <time>2021-01-16T14:03:28Z</time>
      </trkpt>
      <trkpt lat="42.7886" lon="0.39206">
        <ele>1457</ele>
        <time>2021-01-16T14:03:32Z</time>
      </trkpt>
      <trkpt lat="42.78867" lon="0.39203">
        <ele>1459</ele>
        <time>2021-01-16T14:03:40Z</time>
      </trkpt>
      <trkpt lat="42.78869" lon="0.39203">
        <ele>1459</ele>
        <time>2021-01-16T14:03:48Z</time>
      </trkpt>
      <trkpt lat="42.78876" lon="0.39198">
        <ele>1458</ele>
        <time>2021-01-16T14:03:56Z</time>
      </trkpt>
      <trkpt lat="42.78888" lon="0.39202">
        <ele>1460</ele>
        <time>2021-01-16T14:04:11Z</time>
      </trkpt>
      <trkpt lat="42.78902" lon="0.39209">
        <ele>1462</ele>
        <time>2021-01-16T14:04:29Z</time>
      </trkpt>
      <trkpt lat="42.78911" lon="0.39208">
        <ele>1463</ele>
        <time>2021-01-16T14:04:40Z</time>
      </trkpt>
      <trkpt lat="42.78922" lon="0.39201">
        <ele>1463</ele>
        <time>2021-01-16T14:04:53Z</time>
      </trkpt>
      <trkpt lat="42.78943" lon="0.39179">
        <ele>1464</ele>
        <time>2021-01-16T14:05:21Z</time>
      </trkpt>
      <trkpt lat="42.78948" lon="0.39172">
        <ele>1464</ele>
        <time>2021-01-16T14:05:30Z</time>
      </trkpt>
      <trkpt lat="42.7895" lon="0.3917">
        <ele>1465</ele>
        <time>2021-01-16T14:05:34Z</time>
      </trkpt>
      <trkpt lat="42.78952" lon="0.39166">
        <ele>1465</ele>
        <time>2021-01-16T14:05:37Z</time>
      </trkpt>
      <trkpt lat="42.78958" lon="0.39164">
        <ele>1465</ele>
        <time>2021-01-16T14:05:45Z</time>
      </trkpt>
      <trkpt lat="42.78961" lon="0.39161">
        <ele>1465</ele>
        <time>2021-01-16T14:05:48Z</time>
      </trkpt>
      <trkpt lat="42.78963" lon="0.39159">
        <ele>1465</ele>
        <time>2021-01-16T14:05:51Z</time>
      </trkpt>
      <trkpt lat="42.78972" lon="0.39155">
        <ele>1467</ele>
        <time>2021-01-16T14:05:59Z</time>
      </trkpt>
      <trkpt lat="42.78975" lon="0.39152">
        <ele>1466</ele>
        <time>2021-01-16T14:06:06Z</time>
      </trkpt>
      <trkpt lat="42.78985" lon="0.39142">
        <ele>1468</ele>
        <time>2021-01-16T14:06:17Z</time>
      </trkpt>
      <trkpt lat="42.78992" lon="0.39129">
        <ele>1467</ele>
        <time>2021-01-16T14:06:27Z</time>
      </trkpt>
      <trkpt lat="42.78996" lon="0.39115">
        <ele>1465</ele>
        <time>2021-01-16T14:06:41Z</time>
      </trkpt>
      <trkpt lat="42.78995" lon="0.3911">
        <ele>1466</ele>
        <time>2021-01-16T14:06:51Z</time>
      </trkpt>
      <trkpt lat="42.78996" lon="0.39101">
        <ele>1466</ele>
        <time>2021-01-16T14:06:57Z</time>
      </trkpt>
      <trkpt lat="42.78997" lon="0.39096">
        <ele>1466</ele>
        <time>2021-01-16T14:07:02Z</time>
      </trkpt>
      <trkpt lat="42.78998" lon="0.39091">
        <ele>1466</ele>
        <time>2021-01-16T14:07:05Z</time>
      </trkpt>
      <trkpt lat="42.78998" lon="0.39087">
        <ele>1466</ele>
        <time>2021-01-16T14:07:08Z</time>
      </trkpt>
      <trkpt lat="42.79" lon="0.39079">
        <ele>1466</ele>
        <time>2021-01-16T14:07:15Z</time>
      </trkpt>
      <trkpt lat="42.79002" lon="0.39072">
        <ele>1466</ele>
        <time>2021-01-16T14:07:22Z</time>
      </trkpt>
      <trkpt lat="42.79007" lon="0.39057">
        <ele>1465</ele>
        <time>2021-01-16T14:07:36Z</time>
      </trkpt>
      <trkpt lat="42.79008" lon="0.3905">
        <ele>1465</ele>
        <time>2021-01-16T14:07:49Z</time>
      </trkpt>
      <trkpt lat="42.79008" lon="0.39048">
        <ele>1465</ele>
        <time>2021-01-16T14:08:04Z</time>
      </trkpt>
      <trkpt lat="42.79008" lon="0.39046">
        <ele>1465</ele>
        <time>2021-01-16T14:08:06Z</time>
      </trkpt>
      <trkpt lat="42.7901" lon="0.3904">
        <ele>1465</ele>
        <time>2021-01-16T14:08:12Z</time>
      </trkpt>
      <trkpt lat="42.79011" lon="0.39028">
        <ele>1465</ele>
        <time>2021-01-16T14:08:21Z</time>
      </trkpt>
      <trkpt lat="42.79014" lon="0.39022">
        <ele>1466</ele>
        <time>2021-01-16T14:08:31Z</time>
      </trkpt>
      <trkpt lat="42.79012" lon="0.39023">
        <ele>1466</ele>
        <time>2021-01-16T14:08:36Z</time>
      </trkpt>
      <trkpt lat="42.79012" lon="0.3902">
        <ele>1465</ele>
        <time>2021-01-16T14:08:40Z</time>
      </trkpt>
      <trkpt lat="42.79015" lon="0.39007">
        <ele>1464</ele>
        <time>2021-01-16T14:08:52Z</time>
      </trkpt>
      <trkpt lat="42.79017" lon="0.39004">
        <ele>1464</ele>
        <time>2021-01-16T14:08:56Z</time>
      </trkpt>
      <trkpt lat="42.79023" lon="0.38986">
        <ele>1464</ele>
        <time>2021-01-16T14:09:11Z</time>
      </trkpt>
      <trkpt lat="42.79025" lon="0.38978">
        <ele>1463</ele>
        <time>2021-01-16T14:09:18Z</time>
      </trkpt>
      <trkpt lat="42.79027" lon="0.38973">
        <ele>1463</ele>
        <time>2021-01-16T14:09:24Z</time>
      </trkpt>
      <trkpt lat="42.79039" lon="0.38953">
        <ele>1462</ele>
        <time>2021-01-16T14:09:44Z</time>
      </trkpt>
      <trkpt lat="42.79049" lon="0.38947">
        <ele>1462</ele>
        <time>2021-01-16T14:09:57Z</time>
      </trkpt>
      <trkpt lat="42.79061" lon="0.38953">
        <ele>1463</ele>
        <time>2021-01-16T14:10:09Z</time>
      </trkpt>
      <trkpt lat="42.79063" lon="0.38953">
        <ele>1464</ele>
        <time>2021-01-16T14:10:12Z</time>
      </trkpt>
      <trkpt lat="42.79065" lon="0.38954">
        <ele>1464</ele>
        <time>2021-01-16T14:10:27Z</time>
      </trkpt>
      <trkpt lat="42.79069" lon="0.38952">
        <ele>1464</ele>
        <time>2021-01-16T14:10:42Z</time>
      </trkpt>
      <trkpt lat="42.79082" lon="0.38955">
        <ele>1463</ele>
        <time>2021-01-16T14:11:06Z</time>
      </trkpt>
      <trkpt lat="42.79086" lon="0.38956">
        <ele>1463</ele>
        <time>2021-01-16T14:11:09Z</time>
      </trkpt>
      <trkpt lat="42.7909" lon="0.3896">
        <ele>1463</ele>
        <time>2021-01-16T14:11:12Z</time>
      </trkpt>
      <trkpt lat="42.79093" lon="0.3896">
        <ele>1463</ele>
        <time>2021-01-16T14:11:14Z</time>
      </trkpt>
      <trkpt lat="42.79096" lon="0.38959">
        <ele>1462</ele>
        <time>2021-01-16T14:11:17Z</time>
      </trkpt>
      <trkpt lat="42.79098" lon="0.38956">
        <ele>1462</ele>
        <time>2021-01-16T14:11:20Z</time>
      </trkpt>
      <trkpt lat="42.79107" lon="0.38953">
        <ele>1463</ele>
        <time>2021-01-16T14:11:37Z</time>
      </trkpt>
      <trkpt lat="42.79109" lon="0.3895">
        <ele>1462</ele>
        <time>2021-01-16T14:11:40Z</time>
      </trkpt>
      <trkpt lat="42.79113" lon="0.3895">
        <ele>1462</ele>
        <time>2021-01-16T14:11:46Z</time>
      </trkpt>
      <trkpt lat="42.7912" lon="0.38942">
        <ele>1462</ele>
        <time>2021-01-16T14:11:53Z</time>
      </trkpt>
      <trkpt lat="42.79132" lon="0.38935">
        <ele>1460</ele>
        <time>2021-01-16T14:12:06Z</time>
      </trkpt>
      <trkpt lat="42.79142" lon="0.38931">
        <ele>1460</ele>
        <time>2021-01-16T14:12:16Z</time>
      </trkpt>
      <trkpt lat="42.79151" lon="0.38912">
        <ele>1460</ele>
        <time>2021-01-16T14:12:33Z</time>
      </trkpt>
      <trkpt lat="42.79152" lon="0.38908">
        <ele>1460</ele>
        <time>2021-01-16T14:12:37Z</time>
      </trkpt>
      <trkpt lat="42.79158" lon="0.3889">
        <ele>1458</ele>
        <time>2021-01-16T14:12:52Z</time>
      </trkpt>
      <trkpt lat="42.79161" lon="0.38884">
        <ele>1458</ele>
        <time>2021-01-16T14:13:05Z</time>
      </trkpt>
      <trkpt lat="42.79161" lon="0.38873">
        <ele>1458</ele>
        <time>2021-01-16T14:13:20Z</time>
      </trkpt>
      <trkpt lat="42.79163" lon="0.38863">
        <ele>1458</ele>
        <time>2021-01-16T14:13:28Z</time>
      </trkpt>
      <trkpt lat="42.79167" lon="0.38855">
        <ele>1458</ele>
        <time>2021-01-16T14:13:34Z</time>
      </trkpt>
      <trkpt lat="42.79168" lon="0.38852">
        <ele>1458</ele>
        <time>2021-01-16T14:13:37Z</time>
      </trkpt>
      <trkpt lat="42.7917" lon="0.38849">
        <ele>1458</ele>
        <time>2021-01-16T14:13:42Z</time>
      </trkpt>
      <trkpt lat="42.79171" lon="0.38845">
        <ele>1459</ele>
        <time>2021-01-16T14:13:44Z</time>
      </trkpt>
      <trkpt lat="42.79173" lon="0.38842">
        <ele>1459</ele>
        <time>2021-01-16T14:13:47Z</time>
      </trkpt>
      <trkpt lat="42.79175" lon="0.38839">
        <ele>1458</ele>
        <time>2021-01-16T14:13:50Z</time>
      </trkpt>
      <trkpt lat="42.79178" lon="0.38831">
        <ele>1457</ele>
        <time>2021-01-16T14:13:57Z</time>
      </trkpt>
      <trkpt lat="42.79181" lon="0.38829">
        <ele>1457</ele>
        <time>2021-01-16T14:14:02Z</time>
      </trkpt>
      <trkpt lat="42.79184" lon="0.38831">
        <ele>1455</ele>
        <time>2021-01-16T14:14:05Z</time>
      </trkpt>
      <trkpt lat="42.79187" lon="0.3883">
        <ele>1455</ele>
        <time>2021-01-16T14:14:08Z</time>
      </trkpt>
      <trkpt lat="42.7919" lon="0.38824">
        <ele>1455</ele>
        <time>2021-01-16T14:14:11Z</time>
      </trkpt>
      <trkpt lat="42.79194" lon="0.38812">
        <ele>1454</ele>
        <time>2021-01-16T14:14:20Z</time>
      </trkpt>
      <trkpt lat="42.79196" lon="0.38809">
        <ele>1454</ele>
        <time>2021-01-16T14:14:23Z</time>
      </trkpt>
      <trkpt lat="42.79213" lon="0.388">
        <ele>1456</ele>
        <time>2021-01-16T14:14:44Z</time>
      </trkpt>
    </trkseg>
  </trk>
</gpx>